Data for 03/25/2009

Time Sea-Level Adjusted Pressure Absolute Pressure Temperature Relative Humidity Dew Point Precipitation   
(mb) (inHg) (mb) (inHg) (C) (F) (%) (C) (F) (mm) (in)
00:01 1015 29.97 844 24.92 -0.5 31.1 77 -4 24.8 0 0
00:02 1015 29.97 844 24.92 -0.5 31.1 78 -3.9 25 0 0
00:03 1015 29.97 844 24.92 -0.6 31 78 -3.9 25.1 0 0
00:04 1015 29.97 844 24.92 -0.6 31 79 -3.8 25.1 0 0
00:05 1015 29.97 844 24.92 -0.6 30.9 79 -3.8 25.1 0 0
00:06 1015 29.97 844 24.92 -0.7 30.8 79 -3.9 25.1 0 0
00:07 1015 29.97 844 24.92 -0.7 30.8 79 -3.9 25 0 0
00:08 1015 29.97 844 24.92 -0.7 30.8 80 -3.7 25.3 0 0
00:09 1015 29.97 844 24.92 -0.7 30.7 81 -3.7 25.4 0 0
00:10 1015 29.97 844 24.92 -0.8 30.6 82 -3.5 25.7 0 0
00:11 1015 29.97 844 24.92 -0.8 30.5 82 -3.6 25.6 0 0
00:12 1015 29.97 844 24.92 -0.9 30.4 82 -3.5 25.6 0 0
00:13 1015 29.97 844 24.92 -0.9 30.4 83 -3.5 25.7 0 0
00:14 1015 29.97 844 24.92 -1 30.3 83 -3.5 25.7 0 0
00:15 1015 29.97 844 24.92 -1 30.2 83 -3.5 25.7 0 0
00:16 1015 29.97 844 24.92 -1 30.2 82 -3.7 25.4 0 0
00:17 1015 29.97 844 24.92 -1 30.1 82 -3.8 25.2 0 0
00:18 1015 29.97 844 24.92 -1 30.1 82 -3.8 25.2 0 0
00:19 1015 29.97 844 24.92 -1 30.2 81 -3.8 25.2 0 0
00:20 1015 29.97 844 24.92 -1 30.2 81 -3.8 25.1 0 0
00:21 1015 29.97 844 24.92 -1 30.2 81 -3.8 25.1 0 0
00:22 1015 29.97 844 24.92 -1 30.3 81 -3.8 25.1 0 0
00:23 1015 29.97 844 24.92 -0.9 30.4 81 -3.8 25.1 0 0
00:24 1015 29.97 844 24.92 -0.9 30.4 81 -3.8 25.2 0 0
00:25 1015 29.97 844 24.92 -0.9 30.4 82 -3.7 25.4 0 0
00:26 1015 29.97 844 24.92 -0.9 30.3 82 -3.6 25.5 0 0
00:27 1015 29.97 844 24.92 -1 30.3 83 -3.6 25.6 0 0
00:28 1015 29.97 844 24.92 -1 30.2 83 -3.5 25.7 0 0
00:29 1015 29.97 844 24.92 -1 30.2 83 -3.6 25.5 0 0
00:30 1015 29.97 844 24.92 -1 30.3 82 -3.6 25.5 0 0
00:31 1015 29.97 844 24.92 -0.9 30.4 82 -3.5 25.6 0 0
00:32 1015 29.97 844 24.92 -0.9 30.4 83 -3.5 25.7 0 0
00:33 1015 29.97 844 24.92 -0.9 30.4 82 -3.5 25.7 0 0
00:34 1015 29.97 844 24.92 -0.9 30.4 83 -3.4 25.9 0 0
00:35 1015 29.97 844 24.92 -0.9 30.4 84 -3.4 26 0 0
00:36 1015 29.97 844 24.92 -1 30.3 83 -3.4 25.8 0 0
00:37 1015 29.97 844 24.92 -1 30.3 83 -3.4 25.8 0 0
00:38 1015 29.97 844 24.92 -1 30.2 84 -3.4 25.8 0 0
00:39 1015 29.97 844 24.92 -1 30.2 84 -3.3 26 0 0
00:40 1015 29.97 844 24.92 -1 30.1 84 -3.4 25.9 0 0
00:41 1015 29.97 844 24.92 -1.1 30.1 84 -3.4 25.8 0 0
00:42 1015 29.97 844 24.92 -1.1 30.1 85 -3.4 26 0 0
00:43 1015 29.97 844 24.92 -1.1 30.1 85 -3.3 26.1 0 0
00:44 1015 29.97 844 24.92 -1.1 30.1 85 -3.3 26.1 0 0
00:45 1015 29.97 844 24.92 -1.1 30 85 -3.3 26.1 0 0
00:46 1015 29.97 844 24.92 -1.1 30 86 -3.2 26.3 0 0
00:47 1015 29.97 844 24.92 -1.2 29.9 87 -3.1 26.4 0 0
00:48 1015 29.97 844 24.92 -1.2 29.9 87 -3.1 26.4 0 0
00:49 1015 29.97 844 24.92 -1.2 29.9 87 -3.1 26.4 0 0
00:50 1015 29.97 844 24.92 -1.2 29.9 86 -3.2 26.3 0 0
00:51 1015 29.97 844 24.92 -1.1 29.9 86 -3.1 26.4 0 0
00:52 1015 29.97 844 24.92 -1.1 30 87 -3.1 26.5 0 0
00:53 1015 29.97 844 24.92 -1.1 30 87 -3 26.6 0 0
00:54 1015 29.97 844 24.92 -1.2 29.9 88 -2.8 26.9 0 0
00:55 1015 29.97 844 24.92 -1.2 29.8 90 -2.7 27.2 0 0
00:56 1015 29.97 844 24.92 -1.3 29.6 91 -2.6 27.3 0 0
00:57 1015 29.97 844 24.92 -1.4 29.4 92 -2.5 27.4 0 0
00:58 1015 29.97 844 24.92 -1.5 29.3 93 -2.5 27.5 0 0
00:59 1015 29.97 844 24.92 -1.6 29.2 93 -2.5 27.5 0 0
01:00 1015 29.97 844 24.92 -1.6 29.2 94 -2.4 27.6 0 0
01:01 1015 29.97 844 24.92 -1.6 29 94 -2.4 27.6 0 0
01:02 1015 29.97 844 24.92 -1.7 29 95 -2.4 27.7 0 0
01:03 1015 29.97 844 24.92 -1.7 28.9 95 -2.4 27.6 0 0
01:04 1015 29.97 844 24.92 -1.7 28.9 95 -2.5 27.6 0 0
01:05 1015 29.97 844 24.92 -1.8 28.8 95 -2.5 27.5 0 0
01:06 1015 29.97 844 24.92 -1.7 28.9 95 -2.5 27.6 0 0
01:07 1015 29.97 844 24.92 -1.7 28.9 95 -2.4 27.6 0 0
01:08 1015 29.97 844 24.92 -1.7 28.9 95 -2.4 27.6 0 0
01:09 1015 29.97 844 24.92 -1.7 28.9 95 -2.5 27.6 0 0
01:10 1015 29.97 844 24.92 -1.7 28.9 95 -2.5 27.6 0 0
01:11 1015 29.97 844 24.92 -1.7 28.9 95 -2.5 27.6 0 0
01:12 1015 29.97 844 24.92 -1.8 28.9 95 -2.5 27.5 0 0
01:13 1015 29.97 844 24.92 -1.8 28.9 95 -2.5 27.5 0 0
01:14 1015 29.97 844 24.92 -1.7 28.9 94 -2.5 27.5 0 0
01:15 1015 29.97 844 24.92 -1.7 28.9 94 -2.5 27.4 0 0
01:16 1015 29.97 844 24.92 -1.7 29 94 -2.5 27.5 0 0
01:17 1015 29.97 844 24.92 -1.7 29 94 -2.5 27.5 0 0
01:18 1015 29.97 844 24.92 -1.7 29 94 -2.5 27.5 0 0
01:19 1015 29.97 844 24.92 -1.7 28.9 94 -2.5 27.4 0 0
01:20 1015 29.97 844 24.92 -1.7 29 94 -2.5 27.4 0 0
01:21 1015 29.97 844 24.92 -1.7 29 94 -2.5 27.5 0 0
01:22 1015 29.97 844 24.92 -1.7 29 94 -2.5 27.5 0 0
01:23 1015 29.97 844 24.92 -1.7 29 94 -2.5 27.5 0 0
01:24 1015 29.97 844 24.92 -1.7 29 94 -2.6 27.4 0 0
01:25 1015 29.97 844 24.92 -1.7 29 94 -2.6 27.3 0 0
01:26 1015 29.97 844 24.92 -1.6 29.1 94 -2.5 27.5 0 0
01:27 1015 29.97 844 24.92 -1.7 29 94 -2.5 27.5 0 0
01:28 1015 29.97 844 24.92 -1.7 29 95 -2.4 27.6 0 0
01:29 1015 29.97 844 24.92 -1.7 29 95 -2.4 27.6 0 0
01:30 1015 29.97 844 24.92 -1.7 29 95 -2.4 27.7 0 0
01:31 1014 29.94 844 24.92 -1.6 29.1 95 -2.3 27.8 0 0
01:32 1014 29.94 844 24.92 -1.7 29 95 -2.4 27.7 0 0
01:33 1014 29.94 844 24.92 -1.6 29.1 95 -2.3 27.8 0 0
01:34 1014 29.94 844 24.92 -1.7 29 95 -2.4 27.7 0 0
01:35 1014 29.94 844 24.92 -1.7 29 95 -2.4 27.7 0 0
01:36 1014 29.94 844 24.92 -1.7 29 95 -2.4 27.7 0 0
01:37 1014 29.94 844 24.92 -1.6 29.1 95 -2.3 27.8 0 0
01:38 1014 29.94 844 24.92 -1.7 29 95 -2.4 27.7 0 0
01:39 1014 29.94 844 24.92 -1.7 29 95 -2.4 27.7 0 0
01:40 1014 29.94 844 24.92 -1.7 29 95 -2.4 27.7 0 0
01:41 1014 29.94 844 24.92 -1.7 28.9 95 -2.4 27.7 0 0
01:42 1014 29.94 844 24.92 -1.7 29 95 -2.4 27.7 0 0
01:43 1014 29.94 844 24.92 -1.7 28.9 95 -2.4 27.6 0 0
01:44 1014 29.94 844 24.92 -1.7 28.9 95 -2.4 27.6 0 0
01:45 1014 29.94 844 24.92 -1.7 28.9 95 -2.4 27.7 0 0
01:46 1014 29.94 844 24.92 -1.7 28.9 95 -2.4 27.6 0 0
01:47 1014 29.94 844 24.92 -1.8 28.9 95 -2.5 27.5 0 0
01:48 1014 29.94 844 24.92 -1.7 28.9 95 -2.4 27.6 0 0
01:49 1014 29.94 844 24.92 -1.8 28.8 95 -2.5 27.5 0 0
01:50 1014 29.94 843 24.89 -1.8 28.8 95 -2.5 27.6 0 0
01:51 1014 29.94 843 24.89 -1.8 28.9 95 -2.5 27.6 0 0
01:52 1014 29.94 844 24.92 -1.7 28.9 95 -2.5 27.6 0 0
01:53 1014 29.94 843 24.89 -1.7 28.9 95 -2.4 27.6 0 0
01:54 1014 29.94 843 24.89 -1.8 28.9 95 -2.5 27.5 0 0
01:55 1014 29.94 843 24.89 -1.7 28.9 95 -2.5 27.6 0 0
01:56 1014 29.94 843 24.89 -1.8 28.9 95 -2.5 27.5 0 0
01:57 1014 29.94 843 24.89 -1.7 28.9 95 -2.5 27.5 0 0
01:58 1014 29.94 843 24.89 -1.7 28.9 95 -2.5 27.6 0 0
01:59 1014 29.94 843 24.89 -1.7 28.9 95 -2.5 27.6 0 0
02:00 1014 29.94 843 24.89 -1.7 28.9 94 -2.5 27.5 0 0
02:01 1014 29.94 843 24.89 -1.7 28.9 94 -2.5 27.5 0 0
02:02 1014 29.94 843 24.89 -1.8 28.8 94 -2.5 27.4 0 0
02:03 1014 29.94 843 24.89 -1.8 28.8 94 -2.6 27.4 0 0
02:04 1014 29.94 843 24.89 -1.8 28.8 94 -2.6 27.4 0 0
02:05 1014 29.94 843 24.89 -1.7 28.9 94 -2.6 27.3 0 0
02:06 1014 29.94 843 24.89 -1.7 28.9 93 -2.6 27.3 0 0
02:07 1014 29.94 843 24.89 -1.7 28.9 93 -2.7 27.2 0 0
02:08 1014 29.94 843 24.89 -1.7 28.9 93 -2.7 27.1 0 0
02:09 1014 29.94 843 24.89 -1.7 29 93 -2.7 27.1 0 0
02:10 1014 29.94 843 24.89 -1.7 28.9 92 -2.8 27 0 0
02:11 1014 29.94 843 24.89 -1.7 28.9 93 -2.8 27 0 0
02:12 1014 29.94 843 24.89 -1.7 28.9 93 -2.8 27 0 0
02:13 1014 29.94 843 24.89 -1.7 28.9 93 -2.8 27 0 0
02:14 1014 29.94 843 24.89 -1.7 28.9 93 -2.7 27.1 0 0
02:15 1014 29.94 843 24.89 -1.7 28.9 93 -2.8 27 0 0
02:16 1014 29.94 843 24.89 -1.7 28.9 93 -2.7 27.1 0 0
02:17 1014 29.94 843 24.89 -1.7 28.9 93 -2.7 27.1 0 0
02:18 1014 29.94 843 24.89 -1.8 28.8 93 -2.8 27 0 0
02:19 1014 29.94 843 24.89 -1.8 28.8 93 -2.7 27.1 0 0
02:20 1014 29.94 843 24.89 -1.8 28.7 93 -2.8 27 0 0
02:21 1014 29.94 843 24.89 -1.8 28.8 93 -2.7 27.1 0 0
02:22 1014 29.94 843 24.89 -1.8 28.8 93 -2.7 27.1 0 0
02:23 1014 29.94 843 24.89 -1.8 28.8 93 -2.7 27.1 0 0
02:24 1014 29.94 843 24.89 -1.8 28.8 93 -2.7 27.1 0 0
02:25 1014 29.94 843 24.89 -1.7 28.9 93 -2.7 27.1 0 0
02:26 1014 29.94 843 24.89 -1.8 28.8 93 -2.7 27.1 0 0
02:27 1014 29.94 843 24.89 -1.7 28.9 93 -2.7 27.1 0 0
02:28 1014 29.94 843 24.89 -1.7 28.9 93 -2.7 27.1 0 0
02:29 1014 29.94 843 24.89 -1.7 28.9 93 -2.7 27.1 0 0
02:30 1014 29.94 843 24.89 -1.7 29 92 -2.8 27 0 0
02:31 1014 29.94 843 24.89 -1.7 29 92 -2.8 27 0 0
02:32 1014 29.94 843 24.89 -1.7 29 92 -2.8 27 0 0
02:33 1014 29.94 843 24.89 -1.6 29 92 -2.8 27 0 0
02:34 1014 29.94 843 24.89 -1.7 29 92 -2.8 27 0 0
02:35 1014 29.94 843 24.89 -1.7 29 92 -2.8 27 0 0
02:36 1014 29.94 843 24.89 -1.7 28.9 92 -2.8 27 0 0
02:37 1014 29.94 843 24.89 -1.7 28.9 92 -2.8 26.9 0 0
02:38 1014 29.94 843 24.89 -1.8 28.9 92 -2.8 26.9 0 0
02:39 1014 29.94 843 24.89 -1.8 28.8 92 -2.8 26.9 0 0
02:40 1014 29.94 843 24.89 -1.8 28.8 92 -2.9 26.9 0 0
02:41 1014 29.94 843 24.89 -1.8 28.8 92 -2.9 26.8 0 0
02:42 1014 29.94 843 24.89 -1.8 28.8 92 -2.9 26.8 0 0
02:43 1014 29.94 843 24.89 -1.8 28.8 92 -2.9 26.8 0 0
02:44 1014 29.94 843 24.89 -1.8 28.7 92 -2.9 26.8 0 0
02:45 1013 29.91 843 24.89 -1.8 28.8 92 -2.9 26.8 0 0
02:46 1013 29.91 843 24.89 -1.8 28.7 92 -2.9 26.8 0 0
02:47 1013 29.91 843 24.89 -1.8 28.7 92 -2.9 26.8 0 0
02:48 1013 29.91 843 24.89 -1.8 28.7 93 -2.9 26.8 0 0
02:49 1013 29.91 843 24.89 -1.8 28.7 92 -2.9 26.8 0 0
02:50 1013 29.91 843 24.89 -1.8 28.7 92 -2.9 26.7 0 0
02:51 1013 29.91 843 24.89 -1.8 28.8 92 -2.9 26.8 0 0
02:52 1013 29.91 843 24.89 -1.8 28.8 92 -2.9 26.8 0 0
02:53 1013 29.91 843 24.89 -1.8 28.8 92 -2.9 26.8 0 0
02:54 1013 29.91 843 24.89 -1.8 28.8 92 -2.9 26.8 0 0
02:55 1013 29.91 843 24.89 -1.8 28.8 92 -2.9 26.7 0 0
02:56 1013 29.91 843 24.89 -1.8 28.8 92 -2.9 26.7 0 0
02:57 1013 29.91 843 24.89 -1.8 28.8 92 -2.9 26.8 0 0
02:58 1013 29.91 842 24.86 -1.8 28.8 92 -2.9 26.8 0 0
02:59 1013 29.91 842 24.86 -1.8 28.8 92 -2.9 26.8 0 0
03:00 1013 29.91 842 24.86 -1.8 28.7 92 -2.9 26.7 0 0
03:01 1013 29.91 842 24.86 -1.8 28.7 92 -3 26.6 0 0
03:02 1013 29.91 842 24.86 -1.9 28.6 92 -3 26.5 0 0
03:03 1013 29.91 842 24.86 -1.9 28.5 92 -3.1 26.4 0 0
03:04 1013 29.91 842 24.86 -2 28.5 92 -3.1 26.4 0 0
03:05 1013 29.91 842 24.86 -2 28.4 92 -3.2 26.3 0 0
03:06 1013 29.91 842 24.86 -2 28.4 91 -3.2 26.2 0 0
03:07 1013 29.91 842 24.86 -2 28.3 91 -3.3 26.1 0 0
03:08 1013 29.91 842 24.86 -2.1 28.3 91 -3.3 26 0 0
03:09 1013 29.91 842 24.86 -2.1 28.3 91 -3.3 26 0 0
03:10 1013 29.91 842 24.86 -2.1 28.2 91 -3.3 26 0 0
03:11 1013 29.91 842 24.86 -2.1 28.3 91 -3.4 26 0 0
03:12 1013 29.91 842 24.86 -2.1 28.2 91 -3.4 25.9 0 0
03:13 1013 29.91 842 24.86 -2.1 28.2 91 -3.4 25.9 0 0
03:14 1013 29.91 842 24.86 -2.1 28.2 91 -3.4 25.9 0 0
03:15 1013 29.91 842 24.86 -2.1 28.2 91 -3.4 25.8 0 0
03:16 1013 29.91 842 24.86 -2.1 28.1 91 -3.4 25.8 0 0
03:17 1013 29.91 842 24.86 -2.2 28.1 91 -3.5 25.8 0 0
03:18 1013 29.91 842 24.86 -2.2 28.1 91 -3.5 25.8 0 0
03:19 1013 29.91 842 24.86 -2.2 28.1 91 -3.5 25.8 0 0
03:20 1013 29.91 842 24.86 -2.2 28 91 -3.5 25.7 0 0
03:21 1013 29.91 842 24.86 -2.2 28.1 91 -3.4 25.9 0 0
03:22 1013 29.91 842 24.86 -2.2 28 92 -3.4 25.8 0 0
03:23 1013 29.91 842 24.86 -2.2 28 92 -3.4 25.9 0 0
03:24 1013 29.91 842 24.86 -2.2 28 92 -3.4 25.9 0 0
03:25 1013 29.91 842 24.86 -2.2 28.1 91 -3.4 25.9 0 0
03:26 1013 29.91 842 24.86 -2.1 28.3 91 -3.3 26 0 0
03:27 1013 29.91 842 24.86 -2.1 28.3 91 -3.3 26 0 0
03:28 1013 29.91 842 24.86 -2 28.4 91 -3.3 26.1 0 0
03:29 1013 29.91 842 24.86 -2 28.5 91 -3.2 26.2 0 0
03:30 1013 29.91 842 24.86 -1.9 28.5 91 -3.2 26.2 0 0
03:31 1013 29.91 842 24.86 -1.9 28.5 91 -3.3 26.1 0 0
03:32 1013 29.91 842 24.86 -2 28.5 91 -3.3 26.1 0 0
03:33 1013 29.91 842 24.86 -2 28.4 91 -3.3 26 0 0
03:34 1013 29.91 842 24.86 -2 28.5 90 -3.3 26 0 0
03:35 1013 29.91 842 24.86 -1.9 28.6 91 -3.2 26.2 0 0
03:36 1013 29.91 842 24.86 -1.9 28.6 90 -3.3 26.1 0 0
03:37 1013 29.91 842 24.86 -1.9 28.6 90 -3.3 26 0 0
03:38 1013 29.91 842 24.86 -1.9 28.6 90 -3.4 25.9 0 0
03:39 1013 29.91 842 24.86 -1.8 28.7 89 -3.4 25.9 0 0
03:40 1013 29.91 842 24.86 -1.8 28.8 88 -3.4 25.8 0 0
03:41 1013 29.91 842 24.86 -1.7 28.9 88 -3.4 25.8 0 0
03:42 1013 29.91 842 24.86 -1.7 28.9 88 -3.4 25.9 0 0
03:43 1013 29.91 842 24.86 -1.7 28.9 89 -3.4 26 0 0
03:44 1013 29.91 842 24.86 -1.7 28.9 89 -3.3 26.1 0 0
03:45 1013 29.91 842 24.86 -1.7 28.9 89 -3.3 26.1 0 0
03:46 1013 29.91 842 24.86 -1.7 29 89 -3.2 26.2 0 0
03:47 1013 29.91 842 24.86 -1.7 29 90 -3.2 26.3 0 0
03:48 1013 29.91 842 24.86 -1.7 29 90 -3.1 26.4 0 0
03:49 1013 29.91 842 24.86 -1.6 29.1 90 -3.1 26.4 0 0
03:50 1013 29.91 842 24.86 -1.7 28.9 90 -3.2 26.3 0 0
03:51 1013 29.91 842 24.86 -1.7 28.9 90 -3.1 26.4 0 0
03:52 1013 29.91 842 24.86 -1.7 29 90 -3.1 26.5 0 0
03:53 1013 29.91 842 24.86 -1.7 28.9 91 -3 26.6 0 0
03:54 1013 29.91 842 24.86 -1.7 28.9 91 -3 26.7 0 0
03:55 1013 29.91 842 24.86 -1.7 28.9 91 -2.9 26.7 0 0
03:56 1013 29.91 842 24.86 -1.7 28.9 92 -2.9 26.8 0 0
03:57 1013 29.91 842 24.86 -1.7 28.9 92 -2.9 26.7 0 0
03:58 1013 29.91 842 24.86 -1.7 28.9 92 -2.9 26.7 0 0
03:59 1013 29.91 842 24.86 -1.7 28.9 91 -3 26.6 0 0
04:00 1013 29.91 842 24.86 -1.8 28.8 91 -3 26.5 0 0
04:01 1013 29.91 842 24.86 -1.8 28.7 91 -3 26.5 0 0
04:02 1013 29.91 842 24.86 -1.8 28.8 92 -3 26.6 0 0
04:03 1013 29.91 842 24.86 -1.8 28.7 91 -3 26.5 0 0
04:04 1013 29.91 842 24.86 -1.8 28.7 92 -3 26.5 0 0
04:05 1013 29.91 842 24.86 -1.9 28.6 92 -3 26.5 0 0
04:06 1013 29.91 842 24.86 -1.9 28.6 91 -3.1 26.4 0 0
04:07 1012 29.88 842 24.86 -1.9 28.6 91 -3.2 26.2 0 0
04:08 1012 29.88 842 24.86 -1.9 28.6 90 -3.3 26.1 0 0
04:09 1013 29.91 842 24.86 -1.9 28.6 88 -3.6 25.5 0 0
04:10 1013 29.91 842 24.86 -1.8 28.8 89 -3.4 25.9 0 0
04:11 1013 29.91 842 24.86 -1.8 28.7 89 -3.4 25.9 0 0
04:12 1013 29.91 842 24.86 -1.8 28.7 90 -3.2 26.2 0 0
04:13 1013 29.91 842 24.86 -1.9 28.7 91 -3.2 26.3 0 0
04:14 1013 29.91 842 24.86 -1.9 28.5 91 -3.1 26.3 0 0
04:15 1012 29.88 842 24.86 -1.9 28.5 92 -3.1 26.4 0 0
04:16 1012 29.88 842 24.86 -1.9 28.5 92 -3.1 26.4 0 0
04:17 1012 29.88 842 24.86 -1.9 28.5 92 -3.1 26.4 0 0
04:18 1012 29.88 842 24.86 -1.9 28.5 92 -3.1 26.4 0 0
04:19 1012 29.88 842 24.86 -1.9 28.6 91 -3.1 26.4 0 0
04:20 1012 29.88 842 24.86 -1.9 28.6 91 -3.1 26.4 0 0
04:21 1012 29.88 842 24.86 -1.9 28.6 91 -3.1 26.3 0 0
04:22 1012 29.88 842 24.86 -1.9 28.6 91 -3.2 26.3 0 0
04:23 1012 29.88 842 24.86 -1.8 28.7 90 -3.3 26.1 0 0
04:24 1012 29.88 842 24.86 -1.8 28.8 90 -3.3 26.1 0 0
04:25 1012 29.88 842 24.86 -1.8 28.8 90 -3.2 26.2 0 0
04:26 1012 29.88 842 24.86 -1.7 29 90 -3.2 26.3 0 0
04:27 1012 29.88 842 24.86 -1.7 29 90 -3.1 26.4 0 0
04:28 1012 29.88 841 24.83 -1.6 29 90 -3.1 26.3 0 0
04:29 1012 29.88 841 24.83 -1.6 29 89 -3.3 26.1 0 0
04:30 1012 29.88 841 24.83 -1.6 29.1 89 -3.3 26.1 0 0
04:31 1012 29.88 841 24.83 -1.6 29.1 89 -3.2 26.2 0 0
04:32 1012 29.88 841 24.83 -1.6 29.1 88 -3.3 26 0 0
04:33 1012 29.88 841 24.83 -1.5 29.2 88 -3.3 26.1 0 0
04:34 1012 29.88 841 24.83 -1.5 29.2 87 -3.4 25.9 0 0
04:35 1012 29.88 841 24.83 -1.5 29.4 87 -3.3 26 0 0
04:36 1012 29.88 841 24.83 -1.5 29.4 87 -3.3 26.1 0 0
04:37 1012 29.88 841 24.83 -1.5 29.4 87 -3.3 26.1 0 0
04:38 1012 29.88 841 24.83 -1.5 29.4 87 -3.3 26 0 0
04:39 1012 29.88 841 24.83 -1.4 29.4 87 -3.3 26.1 0 0
04:40 1012 29.88 841 24.83 -1.4 29.4 87 -3.3 26 0 0
04:41 1012 29.88 841 24.83 -1.5 29.4 87 -3.3 26 0 0
04:42 1012 29.88 841 24.83 -1.5 29.2 88 -3.3 26 0 0
04:43 1012 29.88 841 24.83 -1.6 29.2 87 -3.4 25.8 0 0
04:44 1012 29.88 841 24.83 -1.6 29.1 87 -3.5 25.7 0 0
04:45 1012 29.88 841 24.83 -1.7 29 87 -3.5 25.6 0 0
04:46 1012 29.88 841 24.83 -1.8 28.8 87 -3.6 25.5 0 0
04:47 1012 29.88 841 24.83 -1.8 28.7 87 -3.7 25.4 0 0
04:48 1012 29.88 841 24.83 -1.9 28.6 87 -3.7 25.3 0 0
04:49 1012 29.88 841 24.83 -1.9 28.6 87 -3.7 25.3 0 0
04:50 1012 29.88 841 24.83 -1.9 28.5 87 -3.8 25.1 0 0
04:51 1012 29.88 841 24.83 -2 28.4 87 -3.8 25.1 0 0
04:52 1012 29.88 841 24.83 -2 28.4 87 -3.8 25.1 0 0
04:53 1012 29.88 841 24.83 -2 28.4 87 -3.9 25 0 0
04:54 1012 29.88 841 24.83 -1.9 28.5 86 -3.9 25 0 0
04:55 1012 29.88 841 24.83 -1.9 28.5 86 -3.9 24.9 0 0
04:56 1012 29.88 841 24.83 -1.9 28.5 86 -4 24.8 0 0
04:57 1012 29.88 841 24.83 -1.9 28.6 85 -4.1 24.7 0 0
04:58 1012 29.88 841 24.83 -1.8 28.7 84 -4.1 24.6 0 0
04:59 1012 29.88 841 24.83 -1.8 28.8 85 -4.1 24.7 0 0
05:00 1012 29.88 841 24.83 -1.9 28.7 84 -4.2 24.4 0 0
05:01 1012 29.88 841 24.83 -1.8 28.7 84 -4.3 24.3 0 0
05:02 1012 29.88 841 24.83 -1.8 28.8 84 -4.2 24.4 0 0
05:03 1012 29.88 841 24.83 -1.8 28.7 84 -4.3 24.3 0 0
05:04 1012 29.88 841 24.83 -1.9 28.6 84 -4.3 24.3 0 0
05:05 1012 29.88 841 24.83 -1.9 28.6 83 -4.3 24.2 0 0
05:06 1012 29.88 841 24.83 -1.9 28.6 82 -4.5 23.8 0 0
05:07 1012 29.88 841 24.83 -1.8 28.7 81 -4.7 23.5 0 0
05:08 1012 29.88 841 24.83 -1.7 28.9 80 -4.7 23.6 0 0
05:09 1012 29.88 841 24.83 -1.7 29 81 -4.6 23.7 0 0
05:10 1012 29.88 841 24.83 -1.6 29 80 -4.6 23.7 0 0
05:11 1012 29.88 841 24.83 -1.6 29.1 80 -4.7 23.6 0 0
05:12 1012 29.88 841 24.83 -1.6 29.1 79 -4.8 23.4 0 0
05:13 1012 29.88 841 24.83 -1.6 29.2 79 -4.7 23.5 0 0
05:14 1012 29.88 841 24.83 -1.5 29.2 79 -4.7 23.5 0 0
05:15 1012 29.88 841 24.83 -1.5 29.2 78 -4.8 23.3 0 0
05:16 1012 29.88 841 24.83 -1.5 29.3 78 -4.9 23.2 0 0
05:17 1012 29.88 841 24.83 -1.5 29.4 78 -4.9 23.2 0 0
05:18 1012 29.88 841 24.83 -1.5 29.3 78 -4.9 23.2 0 0
05:19 1012 29.88 841 24.83 -1.4 29.4 78 -4.8 23.4 0 0
05:20 1012 29.88 841 24.83 -1.5 29.4 78 -4.8 23.4 0 0
05:21 1012 29.88 841 24.83 -1.4 29.4 78 -4.8 23.4 0 0
05:22 1012 29.88 841 24.83 -1.5 29.4 79 -4.7 23.5 0 0
05:23 1012 29.88 841 24.83 -1.5 29.4 78 -4.9 23.2 0 0
05:24 1012 29.88 841 24.83 -1.5 29.4 77 -4.9 23.1 0 0
05:25 1012 29.88 841 24.83 -1.5 29.4 76 -5.1 22.9 0 0
05:26 1012 29.88 841 24.83 -1.4 29.4 76 -5.2 22.7 0 0
05:27 1012 29.88 841 24.83 -1.4 29.5 75 -5.2 22.7 0 0
05:28 1012 29.88 841 24.83 -1.3 29.6 75 -5.2 22.7 0 0
05:29 1012 29.88 841 24.83 -1.4 29.6 75 -5.3 22.5 0 0
05:30 1012 29.88 841 24.83 -1.3 29.7 75 -5.2 22.6 0 0
05:31 1012 29.88 841 24.83 -1.3 29.7 75 -5.2 22.7 0 0
05:32 1012 29.88 841 24.83 -1.2 29.8 76 -5 23 0 0
05:33 1012 29.88 841 24.83 -1.3 29.7 76 -5 22.9 0 0
05:34 1012 29.88 841 24.83 -1.3 29.7 76 -5 23 0 0
05:35 1012 29.88 841 24.83 -1.3 29.6 77 -4.8 23.3 0 0
05:36 1012 29.88 841 24.83 -1.3 29.6 79 -4.5 24 0 0
05:37 1012 29.88 841 24.83 -1.4 29.5 80 -4.4 24 0 0
05:38 1012 29.88 841 24.83 -1.5 29.3 81 -4.3 24.3 0 0
05:39 1012 29.88 841 24.83 -1.5 29.3 82 -4.2 24.4 0 0
05:40 1012 29.88 841 24.83 -1.5 29.2 82 -4.2 24.5 0 0
05:41 1012 29.88 841 24.83 -1.6 29.2 83 -4.1 24.6 0 0
05:42 1012 29.88 841 24.83 -1.6 29.2 83 -4.1 24.7 0 0
05:43 1012 29.88 841 24.83 -1.6 29.1 84 -4 24.7 0 0
05:44 1012 29.88 841 24.83 -1.6 29.1 83 -4.1 24.6 0 0
05:45 1012 29.88 841 24.83 -1.6 29.1 82 -4.4 24.1 0 0
05:46 1012 29.88 841 24.83 -1.6 29.1 81 -4.5 23.8 0 0
05:47 1012 29.88 841 24.83 -1.6 29.2 81 -4.4 24 0 0
05:48 1012 29.88 841 24.83 -1.5 29.3 81 -4.4 24.1 0 0
05:49 1012 29.88 841 24.83 -1.5 29.3 81 -4.4 24.1 0 0
05:50 1012 29.88 841 24.83 -1.5 29.3 80 -4.5 23.9 0 0
05:51 1012 29.88 841 24.83 -1.5 29.4 79 -4.6 23.7 0 0
05:52 1012 29.88 841 24.83 -1.5 29.4 79 -4.7 23.6 0 0
05:53 1012 29.88 841 24.83 -1.4 29.4 78 -4.7 23.5 0 0
05:54 1012 29.88 841 24.83 -1.4 29.4 79 -4.6 23.7 0 0
05:55 1012 29.88 841 24.83 -1.4 29.4 79 -4.6 23.7 0 0
05:56 1012 29.88 841 24.83 -1.4 29.4 79 -4.7 23.6 0 0
05:57 1012 29.88 841 24.83 -1.4 29.5 79 -4.6 23.7 0 0
05:58 1011 29.85 841 24.83 -1.4 29.4 79 -4.6 23.7 0 0
05:59 1011 29.85 841 24.83 -1.4 29.5 80 -4.5 24 0 0
06:00 1011 29.85 841 24.83 -1.5 29.4 80 -4.5 24 0 0
06:01 1011 29.85 841 24.83 -1.4 29.4 81 -4.4 24.2 0 0
06:02 1011 29.85 841 24.83 -1.5 29.3 80 -4.5 24 0 0
06:03 1011 29.85 841 24.83 -1.5 29.3 80 -4.5 23.8 0 0
06:04 1011 29.85 841 24.83 -1.5 29.3 80 -4.5 23.9 0 0
06:05 1011 29.85 841 24.83 -1.5 29.3 80 -4.5 24 0 0
06:06 1011 29.85 841 24.83 -1.4 29.4 81 -4.4 24.1 0 0
06:07 1011 29.85 841 24.83 -1.4 29.4 81 -4.3 24.3 0 0
06:08 1011 29.85 841 24.83 -1.5 29.3 82 -4.2 24.4 0 0
06:09 1011 29.85 841 24.83 -1.6 29.2 82 -4.2 24.4 0 0
06:10 1011 29.85 841 24.83 -1.6 29.2 81 -4.4 24.1 0 0
06:11 1011 29.85 841 24.83 -1.5 29.2 81 -4.5 24 0 0
06:12 1011 29.85 841 24.83 -1.5 29.4 78 -4.8 23.4 0 0
06:13 1011 29.85 841 24.83 -1.4 29.5 79 -4.6 23.7 0 0
06:14 1011 29.85 841 24.83 -1.4 29.5 77 -4.9 23.1 0 0
06:15 1011 29.85 841 24.83 -1.3 29.6 77 -4.9 23.3 0 0
06:16 1011 29.85 841 24.83 -1.3 29.6 77 -4.8 23.3 0 0
06:17 1011 29.85 841 24.83 -1.3 29.6 76 -5 23 0 0
06:18 1011 29.85 841 24.83 -1.4 29.5 75 -5.3 22.5 0 0
06:19 1011 29.85 841 24.83 -1.3 29.6 75 -5.3 22.5 0 0
06:20 1011 29.85 841 24.83 -1.3 29.6 74 -5.4 22.3 0 0
06:21 1011 29.85 841 24.83 -1.3 29.6 71 -5.9 21.4 0 0
06:22 1011 29.85 840 24.81 -1.3 29.6 70 -6.1 21 0 0
06:23 1011 29.85 840 24.81 -1.2 29.9 73 -5.4 22.3 0 0
06:24 1011 29.85 840 24.81 -1.2 29.9 73 -5.4 22.2 0 0
06:25 1011 29.85 840 24.81 -1.2 29.8 73 -5.4 22.2 0 0
06:26 1011 29.85 840 24.81 -1.3 29.7 73 -5.5 22.1 0 0
06:27 1011 29.85 840 24.81 -1.3 29.7 73 -5.5 22.1 0 0
06:28 1011 29.85 840 24.81 -1.2 29.8 74 -5.3 22.5 0 0
06:29 1011 29.85 840 24.81 -1.3 29.7 75 -5.2 22.6 0 0
06:30 1011 29.85 840 24.81 -1.3 29.7 75 -5.2 22.7 0 0
06:31 1011 29.85 840 24.81 -1.3 29.6 72 -5.8 21.6 0 0
06:32 1011 29.85 840 24.81 -1.3 29.7 69 -6.3 20.7 0 0
06:33 1011 29.85 840 24.81 -1.3 29.7 67 -6.6 20.2 0 0
06:34 1011 29.85 840 24.81 -1.1 30 68 -6.3 20.7 0 0
06:35 1011 29.85 840 24.81 -1 30.2 66 -6.6 20.1 0 0
06:36 1011 29.85 840 24.81 -1 30.3 64 -6.9 19.5 0 0
06:37 1011 29.85 840 24.81 -0.8 30.5 64 -6.8 19.8 0 0
06:38 1011 29.85 840 24.81 -0.8 30.6 63 -6.9 19.5 0 0
06:39 1011 29.85 840 24.81 -0.7 30.7 65 -6.5 20.3 0 0
06:40 1011 29.85 840 24.81 -0.8 30.6 68 -5.9 21.4 0 0
06:41 1011 29.85 840 24.81 -0.8 30.5 70 -5.7 21.7 0 0
06:42 1011 29.85 840 24.81 -0.9 30.3 67 -6.4 20.5 0 0
06:43 1011 29.85 840 24.81 -1 30.2 69 -5.9 21.3 0 0
06:44 1011 29.85 840 24.81 -1.1 30.1 70 -5.8 21.5 0 0
06:45 1011 29.85 840 24.81 -1.2 29.9 73 -5.4 22.4 0 0
06:46 1011 29.85 840 24.81 -1.4 29.5 75 -5.3 22.5 0 0
06:47 1011 29.85 840 24.81 -1.5 29.3 75 -5.3 22.4 0 0
06:48 1011 29.85 840 24.81 -1.6 29.2 76 -5.3 22.4 0 0
06:49 1011 29.85 840 24.81 -1.6 29.2 75 -5.5 22.2 0 0
06:50 1011 29.85 840 24.81 -1.6 29.2 76 -5.2 22.6 0 0
06:51 1011 29.85 840 24.81 -1.6 29.2 76 -5.2 22.6 0 0
06:52 1011 29.85 840 24.81 -1.7 29 76 -5.4 22.3 0 0
06:53 1011 29.85 840 24.81 -1.7 29 76 -5.3 22.5 0 0
06:54 1011 29.85 840 24.81 -1.6 29.1 77 -5.1 22.8 0 0
06:55 1011 29.85 840 24.81 -1.7 29 77 -5.1 22.8 0 0
06:56 1011 29.85 840 24.81 -1.7 29 77 -5.2 22.6 0 0
06:57 1011 29.85 840 24.81 -1.7 28.9 77 -5.2 22.6 0 0
06:58 1011 29.85 840 24.81 -1.7 28.9 76 -5.4 22.3 0 0
06:59 1011 29.85 840 24.81 -1.7 29 75 -5.5 22.1 0 0
07:00 1011 29.85 840 24.81 -1.6 29.1 76 -5.4 22.3 0 0
07:01 1011 29.85 840 24.81 -1.7 29 74 -5.7 21.8 0 0
07:02 1011 29.85 840 24.81 -1.6 29.1 73 -5.8 21.5 0 0
07:03 1011 29.85 840 24.81 -1.6 29.2 74 -5.6 22 0 0
07:04 1011 29.85 840 24.81 -1.6 29 75 -5.6 22 0 0
07:05 1011 29.85 840 24.81 -1.7 29 74 -5.7 21.7 0 0
07:06 1011 29.85 840 24.81 -1.7 29 75 -5.6 21.9 0 0
07:07 1011 29.85 840 24.81 -1.7 28.9 74 -5.7 21.8 0 0
07:08 1011 29.85 840 24.81 -1.7 28.9 75 -5.6 21.9 0 0
07:09 1011 29.85 840 24.81 -1.7 28.9 74 -5.8 21.5 0 0
07:10 1011 29.85 840 24.81 -1.7 29 74 -5.8 21.6 0 0
07:11 1011 29.85 840 24.81 -1.6 29.1 72 -6 21.2 0 0
07:12 1011 29.85 840 24.81 -1.6 29.1 71 -6.1 21 0 0
07:13 1011 29.85 840 24.81 -1.5 29.2 71 -6.2 20.8 0 0
07:14 1011 29.85 840 24.81 -1.5 29.3 71 -6.2 20.9 0 0
07:15 1011 29.85 840 24.81 -1.5 29.4 70 -6.2 20.8 0 0
07:16 1011 29.85 840 24.81 -1.4 29.4 70 -6.2 20.8 0 0
07:17 1011 29.85 840 24.81 -1.4 29.4 71 -6.1 21.1 0 0
07:18 1011 29.85 840 24.81 -1.5 29.4 71 -6 21.2 0 0
07:19 1011 29.85 840 24.81 -1.5 29.3 72 -5.9 21.3 0 0
07:20 1011 29.85 840 24.81 -1.5 29.3 72 -5.8 21.5 0 0
07:21 1011 29.85 840 24.81 -1.5 29.3 72 -5.9 21.4 0 0
07:22 1011 29.85 840 24.81 -1.6 29.1 73 -5.8 21.5 0 0
07:23 1011 29.85 840 24.81 -1.6 29.1 74 -5.7 21.8 0 0
07:24 1010 29.83 840 24.81 -1.7 29 73 -5.9 21.4 0 0
07:25 1011 29.85 840 24.81 -1.7 29 72 -6 21.2 0 0
07:26 1011 29.85 840 24.81 -1.6 29 72 -6 21.2 0 0
07:27 1011 29.85 840 24.81 -1.6 29.1 72 -6.1 21 0 0
07:28 1011 29.85 840 24.81 -1.6 29.1 72 -6 21.1 0 0
07:29 1011 29.85 840 24.81 -1.6 29.2 71 -6.1 21.1 0 0
07:30 1011 29.85 840 24.81 -1.5 29.3 71 -6.1 21 0 0
07:31 1011 29.85 840 24.81 -1.5 29.3 71 -6 21.2 0 0
07:32 1011 29.85 840 24.81 -1.5 29.3 72 -5.9 21.3 0 0
07:33 1011 29.85 840 24.81 -1.5 29.3 72 -5.9 21.4 0 0
07:34 1010 29.83 840 24.81 -1.5 29.3 71 -6.1 20.9 0 0
07:35 1011 29.85 840 24.81 -1.4 29.4 71 -6.1 21 0 0
07:36 1011 29.85 840 24.81 -1.4 29.4 70 -6.2 20.9 0 0
07:37 1010 29.83 840 24.81 -1.4 29.5 70 -6.2 20.9 0 0
07:38 1010 29.83 840 24.81 -1.4 29.5 71 -5.9 21.4 0 0
07:39 1010 29.83 840 24.81 -1.4 29.5 72 -5.8 21.6 0 0
07:40 1010 29.83 840 24.81 -1.4 29.4 71 -6.1 21 0 0
07:41 1010 29.83 840 24.81 -1.4 29.6 68 -6.4 20.4 0 0
07:42 1010 29.83 840 24.81 -1.3 29.7 68 -6.5 20.2 0 0
07:43 1010 29.83 840 24.81 -1.2 29.8 69 -6.3 20.7 0 0
07:44 1010 29.83 840 24.81 -1.2 29.8 68 -6.3 20.7 0 0
07:45 1010 29.83 840 24.81 -1.2 29.8 68 -6.5 20.3 0 0
07:46 1010 29.83 840 24.81 -1.2 29.8 67 -6.5 20.2 0 0
07:47 1010 29.83 840 24.81 -1.2 29.8 68 -6.4 20.5 0 0
07:48 1010 29.83 840 24.81 -1.2 29.9 67 -6.6 20.2 0 0
07:49 1010 29.83 840 24.81 -1.1 30 68 -6.3 20.6 0 0
07:50 1010 29.83 840 24.81 -1.1 30 69 -6.2 20.8 0 0
07:51 1010 29.83 840 24.81 -1.2 29.9 69 -6.2 20.8 0 0
07:52 1010 29.83 840 24.81 -1.2 29.9 70 -6 21.2 0 0
07:53 1010 29.83 840 24.81 -1.2 29.9 69 -6.1 21 0 0
07:54 1010 29.83 840 24.81 -1.2 29.8 68 -6.5 20.3 0 0
07:55 1010 29.83 840 24.81 -1.2 29.8 68 -6.4 20.4 0 0
07:56 1010 29.83 840 24.81 -1.2 29.8 68 -6.3 20.7 0 0
07:57 1010 29.83 840 24.81 -1.2 29.9 68 -6.3 20.7 0 0
07:58 1010 29.83 840 24.81 -1.2 29.9 67 -6.5 20.2 0 0
07:59 1010 29.83 839 24.78 -1.2 29.9 67 -6.5 20.4 0 0
08:00 1010 29.83 840 24.81 -1.2 29.9 68 -6.3 20.6 0 0
08:01 1010 29.83 839 24.78 -1.2 29.9 69 -6.3 20.7 0 0
08:02 1010 29.83 839 24.78 -1.2 29.8 69 -6.2 20.8 0 0
08:03 1010 29.83 839 24.78 -1.2 29.8 69 -6.2 20.8 0 0
08:04 1010 29.83 839 24.78 -1.2 29.8 69 -6.3 20.7 0 0
08:05 1010 29.83 839 24.78 -1.2 29.8 68 -6.3 20.6 0 0
08:06 1010 29.83 839 24.78 -1.2 29.8 68 -6.4 20.5 0 0
08:07 1010 29.83 839 24.78 -1.2 29.8 70 -6.1 21 0 0
08:08 1010 29.83 839 24.78 -1.2 29.8 69 -6.2 20.9 0 0
08:09 1010 29.83 839 24.78 -1.2 29.8 68 -6.3 20.6 0 0
08:10 1010 29.83 839 24.78 -1.2 29.8 70 -6.1 21 0 0
08:11 1010 29.83 839 24.78 -1.2 29.8 70 -6.1 21.1 0 0
08:12 1010 29.83 839 24.78 -1.2 29.8 68 -6.3 20.6 0 0
08:13 1010 29.83 839 24.78 -1.2 29.9 69 -6.2 20.9 0 0
08:14 1010 29.83 839 24.78 -1.2 29.9 69 -6.1 21.1 0 0
08:15 1010 29.83 839 24.78 -1.2 29.9 68 -6.3 20.7 0 0
08:16 1010 29.83 839 24.78 -1.2 29.9 68 -6.3 20.6 0 0
08:17 1010 29.83 839 24.78 -1.1 30 69 -6 21.1 0 0
08:18 1010 29.83 839 24.78 -1.1 30 70 -5.9 21.3 0 0
08:19 1010 29.83 839 24.78 -1.1 30 68 -6.2 20.8 0 0
08:20 1010 29.83 839 24.78 -1.1 30 70 -5.9 21.4 0 0
08:21 1010 29.83 839 24.78 -1.2 29.9 71 -5.8 21.5 0 0
08:22 1010 29.83 839 24.78 -1.2 29.9 71 -5.7 21.8 0 0
08:23 1010 29.83 839 24.78 -1.2 29.9 71 -5.9 21.5 0 0
08:24 1010 29.83 839 24.78 -1.1 29.9 71 -5.8 21.6 0 0
08:25 1010 29.83 839 24.78 -1.1 30 70 -5.9 21.4 0 0
08:26 1010 29.83 839 24.78 -1.1 30 70 -5.9 21.5 0 0
08:27 1010 29.83 839 24.78 -1.1 30.1 68 -6.3 20.6 0 0
08:28 1010 29.83 839 24.78 -1.1 30.1 69 -6.1 21 0 0
08:29 1010 29.83 839 24.78 -1 30.2 68 -6.3 20.7 0 0
08:30 1010 29.83 839 24.78 -1 30.3 68 -6.1 20.9 0 0
08:31 1010 29.83 839 24.78 -0.9 30.3 68 -6 21.2 0 0
08:32 1010 29.83 839 24.78 -1 30.3 68 -6.2 20.9 0 0
08:33 1010 29.83 839 24.78 -1 30.2 67 -6.3 20.6 0 0
08:34 1010 29.83 839 24.78 -1 30.3 66 -6.5 20.4 0 0
08:35 1010 29.83 839 24.78 -0.9 30.3 67 -6.2 20.8 0 0
08:36 1010 29.83 839 24.78 -0.9 30.4 67 -6.2 20.8 0 0
08:37 1010 29.83 839 24.78 -0.9 30.4 67 -6.3 20.6 0 0
08:38 1010 29.83 839 24.78 -0.9 30.4 65 -6.6 20.1 0 0
08:39 1010 29.83 839 24.78 -0.8 30.5 66 -6.4 20.5 0 0
08:40 1010 29.83 839 24.78 -0.9 30.5 66 -6.4 20.5 0 0
08:41 1010 29.83 839 24.78 -0.9 30.5 68 -6 21.2 0 0
08:42 1010 29.83 839 24.78 -0.9 30.4 69 -5.9 21.3 0 0
08:43 1010 29.83 839 24.78 -0.9 30.4 68 -6 21.2 0 0
08:44 1010 29.83 839 24.78 -0.9 30.4 68 -6.1 21.1 0 0
08:45 1010 29.83 839 24.78 -0.9 30.4 69 -5.8 21.5 0 0
08:46 1010 29.83 839 24.78 -0.9 30.3 69 -5.9 21.3 0 0
08:47 1010 29.83 839 24.78 -0.9 30.3 70 -5.8 21.6 0 0
08:48 1010 29.83 839 24.78 -0.9 30.3 68 -6.1 21 0 0
08:49 1010 29.83 839 24.78 -0.9 30.4 69 -5.8 21.6 0 0
08:50 1010 29.83 839 24.78 -0.9 30.4 69 -5.8 21.5 0 0
08:51 1010 29.83 839 24.78 -0.9 30.4 69 -5.9 21.4 0 0
08:52 1010 29.83 839 24.78 -0.9 30.4 69 -6 21.2 0 0
08:53 1010 29.83 839 24.78 -0.8 30.5 68 -5.9 21.3 0 0
08:54 1010 29.83 839 24.78 -0.8 30.5 67 -6.2 20.8 0 0
08:55 1010 29.83 839 24.78 -0.8 30.6 68 -6 21.1 0 0
08:56 1010 29.83 839 24.78 -0.8 30.6 67 -6.1 21 0 0
08:57 1010 29.83 839 24.78 -0.7 30.7 67 -6.1 21 0 0
08:58 1010 29.83 839 24.78 -0.7 30.7 67 -6 21.2 0 0
08:59 1010 29.83 839 24.78 -0.7 30.8 67 -6 21.2 0 0
09:00 1010 29.83 839 24.78 -0.7 30.8 69 -5.7 21.7 0 0
09:01 1010 29.83 839 24.78 -0.7 30.8 68 -5.9 21.3 0 0
09:02 1010 29.83 839 24.78 -0.7 30.8 67 -6 21.2 0 0
09:03 1010 29.83 839 24.78 -0.6 30.9 66 -6.1 21 0 0
09:04 1010 29.83 839 24.78 -0.6 30.9 65 -6.4 20.6 0 0
09:05 1010 29.83 839 24.78 -0.6 30.9 68 -5.9 21.4 0 0
09:06 1010 29.83 839 24.78 -0.5 31.1 66 -6 21.2 0 0
09:07 1010 29.83 839 24.78 -0.5 31 66 -6.1 21 0 0
09:08 1010 29.83 839 24.78 -0.5 31.1 67 -6 21.3 0 0
09:09 1010 29.83 839 24.78 -0.5 31.1 68 -5.7 21.7 0 0
09:10 1010 29.83 839 24.78 -0.5 31.1 66 -6 21.1 0 0
09:11 1010 29.83 839 24.78 -0.5 31.1 65 -6.4 20.5 0 0
09:12 1010 29.83 839 24.78 -0.5 31.1 65 -6.2 20.9 0 0
09:13 1010 29.83 839 24.78 -0.4 31.2 64 -6.5 20.4 0 0
09:14 1010 29.83 839 24.78 -0.4 31.3 64 -6.5 20.3 0 0
09:15 1010 29.83 839 24.78 -0.4 31.3 64 -6.4 20.4 0 0
09:16 1010 29.83 839 24.78 -0.4 31.3 65 -6.3 20.7 0 0
09:17 1010 29.83 839 24.78 -0.4 31.4 64 -6.3 20.7 0 0
09:18 1010 29.83 839 24.78 -0.4 31.4 66 -5.9 21.4 0 0
09:19 1010 29.83 839 24.78 -0.4 31.3 65 -6.1 21 0 0
09:20 1010 29.83 839 24.78 -0.4 31.2 64 -6.4 20.5 0 0
09:21 1010 29.83 839 24.78 -0.4 31.3 62 -6.7 19.9 0 0
09:22 1010 29.83 839 24.78 -0.4 31.4 63 -6.6 20.1 0 0
09:23 1010 29.83 839 24.78 -0.3 31.4 64 -6.3 20.7 0 0
09:24 1010 29.83 839 24.78 -0.3 31.4 65 -6.1 21 0 0
09:25 1010 29.83 839 24.78 -0.3 31.4 64 -6.2 20.8 0 0
09:26 1010 29.83 839 24.78 -0.3 31.5 64 -6.3 20.6 0 0
09:27 1010 29.83 839 24.78 -0.3 31.4 62 -6.7 20 0 0
09:28 1010 29.83 839 24.78 -0.2 31.6 63 -6.4 20.5 0 0
09:29 1010 29.83 839 24.78 -0.3 31.6 64 -6.3 20.7 0 0
09:30 1010 29.83 839 24.78 -0.3 31.5 65 -6.1 20.9 0 0
09:31 1010 29.83 839 24.78 -0.2 31.6 60 -7 19.4 0 0
09:32 1010 29.83 839 24.78 -0.2 31.7 60 -7 19.5 0 0
09:33 1010 29.83 839 24.78 -0.1 31.8 60 -6.9 19.5 0 0
09:34 1010 29.83 839 24.78 -0.1 31.9 59 -7.1 19.3 0 0
09:35 1010 29.83 839 24.78 -0.1 31.9 62 -6.4 20.5 0 0
09:36 1010 29.83 839 24.78 -0 31.9 63 -6.3 20.7 0 0
09:37 1010 29.83 839 24.78 -0 31.9 60 -6.8 19.7 0 0
09:38 1010 29.83 839 24.78 -0.1 31.9 61 -6.6 20 0 0
09:39 1010 29.83 839 24.78 -0.1 31.9 61 -6.7 19.9 0 0
09:40 1010 29.83 839 24.78 -0 32 61 -6.6 20.1 0 0
09:41 1010 29.83 839 24.78 0 32 63 -6.2 20.8 0 0
09:42 1010 29.83 839 24.78 0.1 32.1 65 -5.8 21.6 0 0
09:43 1010 29.83 839 24.78 0.1 32.3 62 -6.3 20.6 0 0
09:44 1010 29.83 839 24.78 0.3 32.5 61 -6.4 20.5 0 0
09:45 1010 29.83 839 24.78 0.3 32.6 62 -6.1 21 0 0
09:46 1010 29.83 839 24.78 0.4 32.8 62 -5.9 21.4 0 0
09:47 1010 29.83 839 24.78 0.5 32.8 59 -6.6 20.2 0 0
09:48 1010 29.83 839 24.78 0.5 33 63 -5.7 21.7 0 0
09:49 1010 29.83 839 24.78 0.5 33 62 -5.8 21.5 0 0
09:50 1010 29.83 839 24.78 0.6 33 61 -6.1 21 0 0
09:51 1010 29.83 839 24.78 0.5 33 60 -6.3 20.7 0 0
09:52 1010 29.83 839 24.78 0.5 32.9 62 -5.9 21.3 0 0
09:53 1010 29.83 839 24.78 0.5 32.9 62 -5.9 21.3 0 0
09:54 1010 29.83 839 24.78 0.5 32.9 62 -6 21.2 0 0
09:55 1010 29.83 839 24.78 0.5 32.8 60 -6.4 20.5 0 0
09:56 1010 29.83 839 24.78 0.5 32.8 62 -6.1 21 0 0
09:57 1010 29.83 839 24.78 0.5 32.9 64 -5.6 22 0 0
09:58 1010 29.83 839 24.78 0.5 32.9 64 -5.5 22.1 0 0
09:59 1010 29.83 839 24.78 0.5 32.8 65 -5.3 22.5 0 0
10:00 1010 29.83 839 24.78 0.4 32.8 65 -5.4 22.3 0 0
10:01 1010 29.83 839 24.78 0.4 32.8 63 -5.9 21.4 0 0
10:02 1010 29.83 839 24.78 0.4 32.8 62 -5.9 21.4 0 0
10:03 1010 29.83 839 24.78 0.4 32.8 63 -5.8 21.6 0 0
10:04 1010 29.83 839 24.78 0.4 32.7 62 -6 21.1 0 0
10:05 1010 29.83 839 24.78 0.4 32.7 64 -5.7 21.7 0 0
10:06 1010 29.83 839 24.78 0.4 32.8 62 -6 21.1 0 0
10:07 1010 29.83 839 24.78 0.4 32.8 63 -5.8 21.6 0 0
10:08 1010 29.83 839 24.78 0.5 32.8 62 -6 21.3 0 0
10:09 1010 29.83 839 24.78 0.4 32.8 63 -5.9 21.4 0 0
10:10 1010 29.83 839 24.78 0.5 32.8 62 -6 21.1 0 0
10:11 1010 29.83 839 24.78 0.4 32.8 63 -5.8 21.5 0 0
10:12 1010 29.83 839 24.78 0.4 32.8 62 -5.9 21.4 0 0
10:13 1010 29.83 839 24.78 0.4 32.8 65 -5.4 22.3 0 0
10:14 1010 29.83 839 24.78 0.5 32.8 62 -6.1 21.1 0 0
10:15 1010 29.83 839 24.78 0.4 32.8 64 -5.7 21.8 0 0
10:16 1010 29.83 839 24.78 0.4 32.7 63 -5.8 21.6 0 0
10:17 1010 29.83 839 24.78 0.4 32.7 62 -6.1 21.1 0 0
10:18 1010 29.83 839 24.78 0.4 32.6 63 -5.9 21.3 0 0
10:19 1010 29.83 839 24.78 0.3 32.6 63 -5.9 21.4 0 0
10:20 1010 29.83 839 24.78 0.3 32.6 64 -5.6 21.9 0 0
10:21 1010 29.83 839 24.78 0.4 32.7 66 -5.4 22.4 0 0
10:22 1010 29.83 839 24.78 0.4 32.7 63 -5.9 21.5 0 0
10:23 1010 29.83 839 24.78 0.4 32.7 63 -5.8 21.5 0 0
10:24 1010 29.83 839 24.78 0.5 32.8 62 -6 21.3 0 0
10:25 1010 29.83 839 24.78 0.4 32.7 63 -5.8 21.6 0 0
10:26 1010 29.83 839 24.78 0.3 32.6 64 -5.7 21.7 0 0
10:27 1010 29.83 839 24.78 0.3 32.5 66 -5.4 22.2 0 0
10:28 1010 29.83 839 24.78 0.2 32.3 66 -5.4 22.2 0 0
10:29 1010 29.83 839 24.78 0.2 32.3 65 -5.7 21.8 0 0
10:30 1010 29.83 839 24.78 0.1 32.3 65 -5.8 21.6 0 0
10:31 1010 29.83 839 24.78 0.1 32.1 64 -5.9 21.3 0 0
10:32 1010 29.83 839 24.78 0.1 32.2 64 -5.8 21.5 0 0
10:33 1010 29.83 839 24.78 0.2 32.3 68 -5.1 22.9 0 0
10:34 1010 29.83 839 24.78 0.2 32.4 65 -5.6 21.8 0 0
10:35 1010 29.83 839 24.78 0.4 32.7 65 -5.5 22.2 0 0
10:36 1010 29.83 839 24.78 0.5 33 64 -5.5 22.1 0 0
10:37 1010 29.83 839 24.78 0.7 33.2 61 -6 21.2 0 0
10:38 1010 29.83 839 24.78 0.7 33.2 62 -5.7 21.7 0 0
10:39 1010 29.83 839 24.78 0.7 33.3 62 -5.7 21.8 0 0
10:40 1010 29.83 839 24.78 0.7 33.3 62 -5.8 21.6 0 0
10:41 1010 29.83 839 24.78 0.8 33.4 63 -5.6 21.9 0 0
10:42 1010 29.83 839 24.78 0.8 33.4 63 -5.5 22.2 0 0
10:43 1010 29.83 839 24.78 1 33.7 62 -5.5 22.1 0 0
10:44 1010 29.83 839 24.78 1.1 33.9 59 -6.1 20.9 0 0
10:45 1010 29.83 839 24.78 1.1 34 60 -5.7 21.7 0 0
10:46 1010 29.83 839 24.78 1.4 34.4 62 -5.2 22.7 0 0
10:47 1010 29.83 839 24.78 1.5 34.7 59 -5.7 21.8 0 0
10:48 1010 29.83 839 24.78 1.6 35 61 -5 23 0 0
10:49 1010 29.83 839 24.78 1.7 35.1 60 -5.2 22.6 0 0
10:50 1010 29.83 839 24.78 1.8 35.2 61 -4.8 23.3 0 0
10:51 1010 29.83 839 24.78 1.9 35.3 55 -6.3 20.7 0 0
10:52 1010 29.83 839 24.78 1.8 35.3 56 -6 21.1 0 0
10:53 1010 29.83 839 24.78 1.9 35.4 57 -5.6 21.9 0 0
10:54 1010 29.83 839 24.78 1.9 35.5 58 -5.5 22 0 0
10:55 1010 29.83 839 24.78 1.9 35.5 52 -7 19.4 0 0
10:56 1010 29.83 839 24.78 1.9 35.3 56 -5.9 21.3 0 0
10:57 1010 29.83 839 24.78 1.9 35.4 56 -5.9 21.4 0 0
10:58 1010 29.83 839 24.78 1.9 35.4 56 -5.9 21.3 0 0
10:59 1009 29.8 839 24.78 1.8 35.3 54 -6.5 20.2 0 0
11:00 1009 29.8 839 24.78 1.8 35.3 56 -6 21.1 0 0
11:01 1009 29.8 839 24.78 1.8 35.2 57 -5.9 21.4 0 0
11:02 1009 29.8 839 24.78 1.8 35.2 60 -5.2 22.6 0 0
11:03 1009 29.8 839 24.78 1.8 35.3 54 -6.5 20.3 0 0
11:04 1009 29.8 839 24.78 1.8 35.3 57 -5.7 21.7 0 0
11:05 1009 29.8 838 24.75 1.8 35.2 56 -6.1 21 0 0
11:06 1009 29.8 838 24.75 1.6 34.9 58 -5.8 21.5 0 0
11:07 1009 29.8 838 24.75 1.3 34.4 55 -6.7 20 0 0
11:08 1009 29.8 838 24.75 1.3 34.3 59 -6 21.2 0 0
11:09 1009 29.8 839 24.78 1.4 34.5 56 -6.4 20.5 0 0
11:10 1009 29.8 839 24.78 1.5 34.7 52 -7.3 18.8 0 0
11:11 1009 29.8 838 24.75 1.6 34.9 57 -6.1 21.1 0 0
11:12 1009 29.8 839 24.78 1.7 35.1 61 -5.1 22.8 0 0
11:13 1009 29.8 839 24.78 1.8 35.3 59 -5.4 22.2 0 0
11:14 1009 29.8 839 24.78 2 35.6 60 -5 23 0 0
11:15 1009 29.8 839 24.78 2.1 35.7 57 -5.5 22.1 0 0
11:16 1009 29.8 839 24.78 2.2 35.9 53 -6.5 20.3 0 0
11:17 1009 29.8 839 24.78 2.3 36.2 54 -6 21.1 0 0
11:18 1009 29.8 838 24.75 2.3 36.1 55 -6 21.2 0 0
11:19 1009 29.8 838 24.75 2.2 36 56 -5.7 21.8 0 0
11:20 1009 29.8 838 24.75 2.2 36 57 -5.6 22 0 0
11:21 1009 29.8 838 24.75 2.2 35.9 58 -5.2 22.6 0 0
11:22 1009 29.8 838 24.75 2.1 35.8 55 -6.1 21.1 0 0
11:23 1009 29.8 838 24.75 2 35.6 56 -6 21.3 0 0
11:24 1009 29.8 838 24.75 2 35.6 52 -6.9 19.5 0 0
11:25 1009 29.8 838 24.75 1.9 35.4 51 -7.2 19 0 0
11:26 1009 29.8 838 24.75 1.9 35.3 54 -6.5 20.3 0 0
11:27 1009 29.8 839 24.78 1.9 35.3 51 -7.2 19 0 0
11:28 1009 29.8 839 24.78 1.8 35.3 51 -7.4 18.8 0 0
11:29 1009 29.8 839 24.78 1.7 35.1 52 -7.2 19 0 0
11:30 1009 29.8 839 24.78 1.7 35.1 52 -7 19.4 0 0
11:31 1009 29.8 839 24.78 1.7 35.1 51 -7.2 19 0 0
11:32 1009 29.8 839 24.78 1.7 35 53 -6.9 19.5 0 0
11:33 1009 29.8 839 24.78 1.7 35 51 -7.4 18.8 0 0
11:34 1009 29.8 839 24.78 1.6 35 51 -7.3 18.8 0 0
11:35 1009 29.8 839 24.78 1.5 34.7 52 -7.2 19.1 0 0
11:36 1009 29.8 839 24.78 1.5 34.7 53 -7 19.3 0 0
11:37 1009 29.8 839 24.78 1.4 34.6 56 -6.4 20.4 0 0
11:38 1009 29.8 839 24.78 1.4 34.5 55 -6.7 20 0 0
11:39 1009 29.8 839 24.78 1.2 34.2 53 -7.2 19.1 0 0
11:40 1009 29.8 839 24.78 1.1 34.1 57 -6.5 20.3 0 0
11:41 1009 29.8 839 24.78 1.1 34 56 -6.8 19.8 0 0
11:42 1009 29.8 839 24.78 1.1 33.9 56 -6.7 19.9 0 0
11:43 1009 29.8 839 24.78 1 33.8 56 -6.8 19.7 0 0
11:44 1009 29.8 839 24.78 0.9 33.7 57 -6.7 19.9 0 0
11:45 1009 29.8 839 24.78 0.9 33.7 57 -6.6 20.2 0 0
11:46 1009 29.8 839 24.78 0.9 33.7 57 -6.5 20.2 0 0
11:47 1009 29.8 838 24.75 0.9 33.6 59 -6.3 20.6 0 0
11:48 1009 29.8 838 24.75 0.9 33.6 55 -7.1 19.2 0 0
11:49 1009 29.8 838 24.75 0.9 33.6 57 -6.8 19.7 0 0
11:50 1009 29.8 838 24.75 0.9 33.6 55 -7.1 19.2 0 0
11:51 1009 29.8 838 24.75 0.9 33.7 55 -7.2 19 0 0
11:52 1009 29.8 838 24.75 1 33.8 56 -6.9 19.7 0 0
11:53 1009 29.8 839 24.78 1.2 34.2 56 -6.5 20.3 0 0
11:54 1009 29.8 839 24.78 1.6 34.9 50 -7.8 18 0 0
11:55 1009 29.8 839 24.78 1.9 35.4 55 -6.2 20.8 0 0
11:56 1009 29.8 838 24.75 1.9 35.5 53 -6.8 19.8 0 0
11:57 1009 29.8 839 24.78 2 35.6 54 -6.4 20.6 0 0
11:58 1009 29.8 839 24.78 2.1 35.8 56 -5.9 21.4 0 0
11:59 1009 29.8 839 24.78 2.2 36 54 -6.3 20.7 0 0
12:00 1009 29.8 839 24.78 2.3 36.1 53 -6.4 20.5 0 0
12:01 1009 29.8 839 24.78 2.3 36.1 49 -7.3 18.8 0 0
12:02 1009 29.8 838 24.75 2.2 36 53 -6.4 20.4 0 0
12:03 1009 29.8 838 24.75 2.2 36 54 -6.1 20.9 0 0
12:04 1009 29.8 839 24.78 2.3 36.1 49 -7.4 18.6 0 0
12:05 1009 29.8 838 24.75 2.4 36.2 55 -5.7 21.8 0 0
12:06 1009 29.8 839 24.78 2.3 36.2 53 -6.3 20.6 0 0
12:07 1009 29.8 838 24.75 2.4 36.3 53 -6.3 20.6 0 0
12:08 1009 29.8 838 24.75 2.4 36.3 53 -6.3 20.7 0 0
12:09 1009 29.8 838 24.75 2.5 36.4 52 -6.5 20.4 0 0
12:10 1009 29.8 838 24.75 2.5 36.5 46 -7.9 17.8 0 0
12:11 1009 29.8 838 24.75 2.6 36.6 53 -6.1 21 0 0
12:12 1009 29.8 838 24.75 2.7 36.9 44 -8.4 16.9 0 0
12:13 1009 29.8 838 24.75 2.7 36.8 47 -7.5 18.4 0 0
12:14 1009 29.8 838 24.75 2.7 36.8 45 -8 17.6 0 0
12:15 1009 29.8 838 24.75 2.7 36.9 45 -8 17.5 0 0
12:16 1009 29.8 838 24.75 2.8 37 47 -7.4 18.7 0 0
12:17 1009 29.8 838 24.75 2.8 37 43 -8.5 16.7 0 0
12:18 1009 29.8 838 24.75 2.7 36.9 46 -7.9 17.8 0 0
12:19 1009 29.8 838 24.75 2.7 36.9 50 -6.8 19.8 0 0
12:20 1009 29.8 838 24.75 2.9 37.1 47 -7.3 18.9 0 0
12:21 1009 29.8 838 24.75 3 37.3 48 -7 19.4 0 0
12:22 1009 29.8 838 24.75 3 37.5 45 -7.8 18 0 0
12:23 1009 29.8 838 24.75 2.9 37.2 47 -7.3 18.9 0 0
12:24 1009 29.8 838 24.75 2.9 37.2 47 -7.4 18.6 0 0
12:25 1009 29.8 838 24.75 2.8 37.1 49 -6.8 19.8 0 0
12:26 1009 29.8 838 24.75 2.8 37.1 45 -7.9 17.8 0 0
12:27 1009 29.8 838 24.75 2.9 37.1 45 -7.9 17.7 0 0
12:28 1009 29.8 838 24.75 2.8 37.1 46 -7.6 18.4 0 0
12:29 1009 29.8 838 24.75 2.8 37.1 45 -8 17.6 0 0
12:30 1009 29.8 838 24.75 2.8 37.1 48 -7.2 19.1 0 0
12:31 1009 29.8 838 24.75 3 37.3 47 -7.3 18.8 0 0
12:32 1009 29.8 838 24.75 2.8 37 41 -9.1 15.6 0 0
12:33 1009 29.8 838 24.75 2.6 36.7 45 -8.2 17.3 0 0
12:34 1009 29.8 838 24.75 2.6 36.6 43 -8.8 16.2 0 0
12:35 1009 29.8 838 24.75 2.5 36.5 43 -8.9 15.9 0 0
12:36 1009 29.8 838 24.75 2.4 36.4 43 -9 15.7 0 0
12:37 1009 29.8 838 24.75 2.5 36.4 45 -8.3 17.1 0 0
12:38 1009 29.8 838 24.75 2.5 36.5 43 -8.9 15.9 0 0
12:39 1009 29.8 838 24.75 2.4 36.4 44 -8.6 16.5 0 0
12:40 1009 29.8 838 24.75 2.3 36.2 45 -8.5 16.7 0 0
12:41 1009 29.8 838 24.75 2.4 36.2 45 -8.5 16.7 0 0
12:42 1009 29.8 838 24.75 2.4 36.2 45 -8.5 16.8 0 0
12:43 1009 29.8 838 24.75 2.4 36.2 48 -7.6 18.3 0 0
12:44 1009 29.8 838 24.75 2.3 36.2 51 -6.9 19.6 0 0
12:45 1009 29.8 838 24.75 2.2 35.9 53 -6.4 20.5 0 0
12:46 1009 29.8 838 24.75 1.9 35.4 55 -6.2 20.8 0 0
12:47 1009 29.8 838 24.75 1.7 35 58 -5.7 21.8 0 0
12:48 1009 29.8 838 24.75 1.5 34.8 54 -6.7 20 0 0
12:49 1009 29.8 838 24.75 1.5 34.6 60 -5.4 22.3 0 0
12:50 1009 29.8 838 24.75 1.5 34.8 60 -5.5 22.2 0 0
12:51 1009 29.8 838 24.75 1.5 34.8 59 -5.7 21.7 0 0
12:52 1009 29.8 838 24.75 1.5 34.6 59 -5.7 21.8 0 0
12:53 1009 29.8 838 24.75 1.4 34.6 57 -6.1 21 0 0
12:54 1009 29.8 838 24.75 1.4 34.5 58 -6.1 21 0 0
12:55 1009 29.8 838 24.75 1.3 34.3 60 -5.5 22 0 0
12:56 1009 29.8 838 24.75 1.3 34.3 57 -6.2 20.8 0 0
12:57 1009 29.8 838 24.75 1.2 34.2 58 -6.2 20.9 0 0
12:58 1009 29.8 838 24.75 1.2 34.1 57 -6.5 20.3 0 0
12:59 1009 29.8 838 24.75 1 33.8 59 -6.1 21 0 0
13:00 1009 29.8 838 24.75 0.9 33.6 60 -6.1 21.1 0 0
13:01 1009 29.8 838 24.75 0.8 33.5 63 -5.5 22.1 0 0
13:02 1009 29.8 838 24.75 0.8 33.4 64 -5.3 22.5 0 0
13:03 1009 29.8 838 24.75 0.6 33.1 62 -5.8 21.6 0 0
13:04 1009 29.8 838 24.75 0.5 32.8 60 -6.3 20.6 0 0
13:05 1009 29.8 838 24.75 0.3 32.5 63 -6 21.2 0 0
13:06 1009 29.8 838 24.75 0.2 32.3 61 -6.4 20.5 0 0
13:07 1009 29.8 838 24.75 0.1 32.2 61 -6.6 20.2 0 0
13:08 1009 29.8 838 24.75 0.2 32.3 63 -6 21.1 0 0
13:09 1009 29.8 838 24.75 0.2 32.4 63 -6.1 21.1 0 0
13:10 1009 29.8 838 24.75 0.3 32.5 60 -6.5 20.3 0 0
13:11 1009 29.8 838 24.75 0.2 32.4 60 -6.6 20.2 0 0
13:12 1009 29.8 838 24.75 0.2 32.3 61 -6.4 20.4 0 0
13:13 1009 29.8 838 24.75 0.1 32.2 63 -6.1 21.1 0 0
13:14 1009 29.8 838 24.75 0.1 32.2 66 -5.5 22.1 0 0
13:15 1009 29.8 838 24.75 0.1 32.2 68 -5.1 22.9 0 0
13:16 1009 29.8 838 24.75 0.2 32.3 66 -5.4 22.3 0 0
13:17 1009 29.8 838 24.75 0.3 32.5 65 -5.5 22.1 0 0
13:18 1009 29.8 838 24.75 0.4 32.6 67 -5.1 22.9 0 0
13:19 1009 29.8 838 24.75 0.4 32.7 64 -5.7 21.7 0 0
13:20 1009 29.8 838 24.75 0.4 32.8 64 -5.6 22 0 0
13:21 1009 29.8 838 24.75 0.5 32.9 60 -6.3 20.6 0 0
13:22 1009 29.8 838 24.75 0.6 33.1 60 -6.2 20.8 0 0
13:23 1009 29.8 838 24.75 0.7 33.2 55 -7.3 18.9 0 0
13:24 1009 29.8 838 24.75 0.7 33.3 56 -7 19.3 0 0
13:25 1009 29.8 838 24.75 0.8 33.5 57 -6.9 19.7 0 0
13:26 1009 29.8 838 24.75 0.8 33.5 55 -7.2 19 0 0
13:27 1009 29.8 838 24.75 0.8 33.5 57 -6.8 19.8 0 0
13:28 1009 29.8 838 24.75 0.7 33.3 58 -6.6 20.1 0 0
13:29 1009 29.8 838 24.75 0.7 33.3 57 -6.8 19.8 0 0
13:30 1009 29.8 838 24.75 0.7 33.3 57 -6.8 19.7 0 0
13:31 1009 29.8 838 24.75 0.6 33.2 59 -6.5 20.3 0 0
13:32 1009 29.8 838 24.75 0.6 33.1 57 -6.9 19.5 0 0
13:33 1009 29.8 838 24.75 0.7 33.2 63 -5.6 21.9 0 0
13:34 1009 29.8 838 24.75 0.7 33.3 56 -7 19.4 0 0
13:35 1009 29.8 838 24.75 0.7 33.3 60 -6.1 21 0 0
13:36 1009 29.8 839 24.78 0.8 33.4 62 -5.6 21.9 0 0
13:37 1009 29.8 838 24.75 0.8 33.4 57 -6.8 19.8 0 0
13:38 1009 29.8 839 24.78 0.7 33.3 60 -6.1 21 0 0
13:39 1009 29.8 839 24.78 0.7 33.2 57 -6.9 19.6 0 0
13:40 1009 29.8 839 24.78 0.7 33.3 58 -6.6 20.1 0 0
13:41 1009 29.8 839 24.78 0.7 33.3 58 -6.7 20 0 0
13:42 1009 29.8 839 24.78 0.7 33.2 57 -6.8 19.8 0 0
13:43 1009 29.8 839 24.78 0.7 33.2 62 -5.8 21.5 0 0
13:44 1009 29.8 839 24.78 0.7 33.2 56 -7.2 19 0 0
13:45 1009 29.8 839 24.78 0.7 33.3 54 -7.5 18.5 0 0
13:46 1009 29.8 839 24.78 0.7 33.3 55 -7.2 19 0 0
13:47 1009 29.8 839 24.78 0.7 33.2 55 -7.3 18.9 0 0
13:48 1009 29.8 839 24.78 0.7 33.2 58 -6.6 20.1 0 0
13:49 1009 29.8 839 24.78 0.7 33.2 60 -6.1 21 0 0
13:50 1009 29.8 839 24.78 0.7 33.2 59 -6.4 20.4 0 0
13:51 1009 29.8 839 24.78 0.6 33 59 -6.5 20.3 0 0
13:52 1009 29.8 839 24.78 0.5 32.9 60 -6.3 20.6 0 0
13:53 1009 29.8 839 24.78 0.5 32.8 62 -5.9 21.4 0 0
13:54 1009 29.8 839 24.78 0.4 32.8 63 -5.7 21.7 0 0
13:55 1010 29.83 839 24.78 0.5 32.8 63 -5.8 21.6 0 0
13:56 1009 29.8 839 24.78 0.4 32.7 62 -6.1 21 0 0
13:57 1010 29.83 839 24.78 0.3 32.5 64 -5.8 21.6 0 0
13:58 1010 29.83 839 24.78 0.2 32.4 66 -5.4 22.2 0 0
13:59 1009 29.8 839 24.78 0.2 32.3 68 -5 23 0 0
14:00 1009 29.8 839 24.78 0.1 32.3 70 -4.7 23.5 0 0
14:01 1009 29.8 839 24.78 0 32 72 -4.4 24 0 0
14:02 1009 29.8 839 24.78 -0.1 31.8 73 -4.4 24 0 0
14:03 1009 29.8 839 24.78 -0.3 31.5 76 -4 24.7 0 0
14:04 1009 29.8 839 24.78 -0.4 31.3 75 -4.2 24.4 0 0
14:05 1009 29.8 838 24.75 -0.5 31.1 76 -4.2 24.5 0 0
14:06 1009 29.8 839 24.78 -0.6 31 76 -4.3 24.3 0 0
14:07 1009 29.8 839 24.78 -0.6 31 76 -4.2 24.4 0 0
14:08 1009 29.8 839 24.78 -0.6 31 76 -4.4 24.1 0 0
14:09 1009 29.8 839 24.78 -0.5 31 78 -4 24.8 0 0
14:10 1009 29.8 838 24.75 -0.5 31.1 76 -4.2 24.4 0 0
14:11 1009 29.8 838 24.75 -0.5 31.1 69 -5.5 22 0 0
14:12 1009 29.8 838 24.75 -0.5 31.1 66 -6 21.1 0 0
14:13 1009 29.8 838 24.75 -0.4 31.3 73 -4.7 23.6 0 0
14:14 1009 29.8 838 24.75 -0.3 31.4 66 -5.8 21.5 0 0
14:15 1009 29.8 839 24.78 -0.3 31.5 72 -4.7 23.6 0 0
14:16 1009 29.8 838 24.75 -0.2 31.6 76 -4 24.8 0 0
14:17 1009 29.8 839 24.78 -0.2 31.6 73 -4.4 24 0 0
14:18 1009 29.8 839 24.78 -0.2 31.7 73 -4.4 24.1 0 0
14:19 1009 29.8 839 24.78 -0 32 74 -4.1 24.5 0 0
14:20 1010 29.83 839 24.78 0.1 32.2 79 -3.2 26.3 0 0
14:21 1010 29.83 839 24.78 0.4 32.7 75 -3.5 25.7 0 0
14:22 1010 29.83 839 24.78 0.5 32.8 76 -3.3 26 0 0
14:23 1009 29.8 839 24.78 0.2 32.4 78 -3.2 26.3 0 0
14:24 1009 29.8 839 24.78 0 32.1 80 -3.1 26.4 0 0
14:25 1010 29.83 839 24.78 -0 31.9 79 -3.3 26.1 0 0
14:26 1010 29.83 839 24.78 -0.1 31.9 79 -3.3 26 0 0
14:27 1009 29.8 839 24.78 -0.1 31.7 80 -3.2 26.3 0 0
14:28 1009 29.8 839 24.78 -0.1 31.8 80 -3.2 26.3 0 0
14:29 1009 29.8 839 24.78 -0.1 31.8 78 -3.5 25.7 0 0
14:30 1009 29.8 839 24.78 -0.2 31.7 75 -4 24.7 0 0
14:31 1009 29.8 839 24.78 -0.3 31.5 76 -3.9 24.9 0 0
14:32 1009 29.8 839 24.78 -0.2 31.6 76 -4.1 24.7 0 0
14:33 1009 29.8 839 24.78 -0.3 31.5 77 -3.9 25 0 0
14:34 1009 29.8 839 24.78 -0.3 31.4 79 -3.5 25.7 0 0
14:35 1009 29.8 839 24.78 -0.3 31.4 77 -3.9 25 0 0
14:36 1009 29.8 839 24.78 -0.4 31.3 76 -4.1 24.6 0 0
14:37 1009 29.8 838 24.75 -0.5 31.2 75 -4.3 24.2 0 0
14:38 1009 29.8 838 24.75 -0.5 31.1 77 -4.1 24.6 0 0
14:39 1009 29.8 838 24.75 -0.6 31 78 -3.9 24.9 0 0
14:40 1009 29.8 838 24.75 -0.6 31 80 -3.6 25.5 0 0
14:41 1009 29.8 839 24.78 -0.6 31 80 -3.6 25.5 0 0
14:42 1009 29.8 838 24.75 -0.7 30.8 79 -3.8 25.2 0 0
14:43 1009 29.8 839 24.78 -0.7 30.8 79 -3.9 24.9 0 0
14:44 1009 29.8 839 24.78 -0.8 30.5 83 -3.3 26 0 0
14:45 1009 29.8 839 24.78 -1.1 30.1 83 -3.5 25.6 0 0
14:46 1009 29.8 839 24.78 -1.4 29.5 85 -3.7 25.4 0 0
14:47 1009 29.8 839 24.78 -1.6 29.2 87 -3.5 25.7 0 0
14:48 1009 29.8 839 24.78 -1.7 29 88 -3.4 25.8 0 0
14:49 1009 29.8 839 24.78 -1.8 28.8 90 -3.3 26.1 0 0
14:50 1009 29.8 839 24.78 -1.9 28.6 90 -3.3 26 0 0
14:51 1009 29.8 839 24.78 -2 28.4 89 -3.5 25.7 0 0
14:52 1009 29.8 839 24.78 -2.1 28.2 90 -3.5 25.6 0 0
14:53 1009 29.8 838 24.75 -2.2 28.1 90 -3.6 25.5 0 0
14:54 1009 29.8 838 24.75 -2.3 27.9 90 -3.7 25.3 0 0
14:55 1009 29.8 838 24.75 -2.3 27.9 90 -3.7 25.3 0 0
14:56 1009 29.8 838 24.75 -2.4 27.7 89 -3.9 24.9 0 0
14:57 1009 29.8 838 24.75 -2.4 27.7 88 -4.1 24.5 0 0
14:58 1009 29.8 838 24.75 -2.4 27.6 89 -4 24.8 0 0
14:59 1009 29.8 838 24.75 -2.4 27.7 88 -4.1 24.6 0 0
15:00 1009 29.8 839 24.78 -2.4 27.7 89 -4 24.9 0 0
15:01 1009 29.8 839 24.78 -2.4 27.7 88 -4.1 24.7 0 0
15:02 1009 29.8 839 24.78 -2.4 27.6 87 -4.3 24.3 0 0
15:03 1009 29.8 839 24.78 -2.5 27.5 89 -4.1 24.7 0 0
15:04 1009 29.8 839 24.78 -2.5 27.5 88 -4.2 24.5 0 0
15:05 1009 29.8 839 24.78 -2.4 27.6 89 -4 24.8 0 0
15:06 1009 29.8 839 24.78 -2.4 27.7 89 -3.9 24.9 0 0
15:07 1009 29.8 839 24.78 -2.3 27.8 90 -3.8 25.2 0 0
15:08 1009 29.8 839 24.78 -2.3 27.9 90 -3.7 25.3 0 0
15:09 1009 29.8 839 24.78 -2.2 28 87 -4 24.8 0 0
15:10 1009 29.8 839 24.78 -2.1 28.1 87 -4 24.9 0 0
15:11 1009 29.8 839 24.78 -2.1 28.3 87 -3.9 25 0 0
15:12 1009 29.8 839 24.78 -2.1 28.3 87 -4 24.8 0 0
15:13 1009 29.8 839 24.78 -2 28.4 87 -3.9 24.9 0 0
15:14 1009 29.8 839 24.78 -2 28.4 86 -4 24.8 0 0
15:15 1009 29.8 839 24.78 -2 28.4 85 -4.1 24.6 0 0
15:16 1009 29.8 839 24.78 -2 28.4 85 -4.3 24.3 0 0
15:17 1009 29.8 839 24.78 -2 28.4 88 -3.8 25.1 0 0
15:18 1009 29.8 839 24.78 -2 28.5 88 -3.8 25.2 0 0
15:19 1009 29.8 839 24.78 -2 28.4 86 -4 24.8 0 0
15:20 1009 29.8 839 24.78 -2.1 28.2 87 -4 24.9 0 0
15:21 1009 29.8 839 24.78 -2.1 28.2 87 -4 24.7 0 0
15:22 1010 29.83 839 24.78 -2.1 28.2 88 -3.8 25.2 0 0
15:23 1010 29.83 839 24.78 -2.1 28.3 88 -3.8 25.2 0 0
15:24 1010 29.83 839 24.78 -2 28.4 88 -3.7 25.4 0 0
15:25 1010 29.83 839 24.78 -2 28.4 88 -3.8 25.2 0 0
15:26 1010 29.83 839 24.78 -2 28.4 88 -3.8 25.2 0 0
15:27 1010 29.83 839 24.78 -2 28.4 88 -3.8 25.2 0 0
15:28 1010 29.83 839 24.78 -2.1 28.3 88 -3.8 25.2 0 0
15:29 1010 29.83 839 24.78 -2 28.4 88 -3.7 25.3 0 0
15:30 1010 29.83 839 24.78 -2 28.4 87 -3.9 25 0 0
15:31 1010 29.83 839 24.78 -2 28.4 87 -3.9 24.9 0 0
15:32 1010 29.83 839 24.78 -2 28.3 86 -4 24.8 0 0
15:33 1010 29.83 839 24.78 -2 28.4 88 -3.8 25.2 0 0
15:34 1010 29.83 839 24.78 -2 28.4 87 -3.8 25.2 0 0
15:35 1010 29.83 839 24.78 -2 28.5 88 -3.7 25.3 0 0
15:36 1010 29.83 839 24.78 -1.9 28.5 87 -3.9 25 0 0
15:37 1010 29.83 839 24.78 -1.9 28.5 86 -3.9 25 0 0
15:38 1010 29.83 839 24.78 -1.9 28.6 86 -3.9 25 0 0
15:39 1010 29.83 839 24.78 -1.9 28.6 87 -3.8 25.2 0 0
15:40 1010 29.83 839 24.78 -1.8 28.7 87 -3.7 25.4 0 0
15:41 1010 29.83 839 24.78 -1.9 28.7 87 -3.8 25.2 0 0
15:42 1010 29.83 839 24.78 -1.9 28.6 87 -3.8 25.2 0 0
15:43 1010 29.83 839 24.78 -1.9 28.5 88 -3.7 25.4 0 0
15:44 1010 29.83 839 24.78 -2 28.4 89 -3.6 25.5 0 0
15:45 1010 29.83 839 24.78 -2 28.4 89 -3.6 25.6 0 0
15:46 1010 29.83 839 24.78 -2 28.4 90 -3.4 25.9 0 0
15:47 1010 29.83 839 24.78 -1.9 28.6 90 -3.3 26 0 0
15:48 1010 29.83 839 24.78 -1.8 28.7 90 -3.2 26.2 0 0
15:49 1010 29.83 839 24.78 -1.8 28.8 89 -3.4 25.9 0 0
15:50 1010 29.83 839 24.78 -1.7 28.9 88 -3.4 25.8 0 0
15:51 1010 29.83 839 24.78 -1.7 29 88 -3.4 25.9 0 0
15:52 1010 29.83 839 24.78 -1.5 29.3 89 -3.1 26.4 0 0
15:53 1010 29.83 839 24.78 -1.2 29.8 88 -3 26.7 0 0
15:54 1010 29.83 839 24.78 -1.1 30 85 -3.3 26.1 0 0
15:55 1010 29.83 839 24.78 -1.1 30.1 85 -3.4 26 0 0
15:56 1010 29.83 839 24.78 -1.2 29.9 86 -3.3 26.1 0 0
15:57 1010 29.83 839 24.78 -1.2 29.9 87 -3.1 26.5 0 0
15:58 1010 29.83 839 24.78 -1 30.1 86 -3.1 26.5 0 0
15:59 1010 29.83 839 24.78 -0.9 30.3 85 -3.2 26.3 0 0
16:00 1010 29.83 839 24.78 -0.9 30.3 83 -3.4 25.9 0 0
16:01 1010 29.83 839 24.78 -0.9 30.4 83 -3.4 25.9 0 0
16:02 1010 29.83 839 24.78 -0.9 30.5 84 -3.3 26.1 0 0
16:03 1010 29.83 839 24.78 -0.8 30.5 83 -3.4 25.9 0 0
16:04 1010 29.83 839 24.78 -0.9 30.4 82 -3.5 25.7 0 0
16:05 1010 29.83 839 24.78 -0.9 30.4 82 -3.6 25.6 0 0
16:06 1010 29.83 839 24.78 -1 30.2 82 -3.7 25.4 0 0
16:07 1010 29.83 839 24.78 -1.1 30 82 -3.8 25.1 0 0
16:08 1010 29.83 839 24.78 -1.1 30 81 -3.9 24.9 0 0
16:09 1010 29.83 839 24.78 -1.2 29.8 80 -4.2 24.5 0 0
16:10 1010 29.83 839 24.78 -1.3 29.7 80 -4.3 24.3 0 0
16:11 1010 29.83 839 24.78 -1.4 29.5 80 -4.4 24 0 0
16:12 1010 29.83 839 24.78 -1.4 29.4 81 -4.2 24.4 0 0
16:13 1010 29.83 839 24.78 -1.4 29.4 80 -4.4 24.1 0 0
16:14 1010 29.83 839 24.78 -1.5 29.4 80 -4.5 23.9 0 0
16:15 1010 29.83 839 24.78 -1.5 29.3 80 -4.5 23.8 0 0
16:16 1010 29.83 839 24.78 -1.5 29.3 80 -4.6 23.8 0 0
16:17 1010 29.83 839 24.78 -1.5 29.2 78 -4.9 23.2 0 0
16:18 1010 29.83 839 24.78 -1.5 29.3 79 -4.7 23.5 0 0
16:19 1010 29.83 839 24.78 -1.5 29.3 79 -4.7 23.6 0 0
16:20 1010 29.83 839 24.78 -1.5 29.4 77 -5 23 0 0
16:21 1010 29.83 839 24.78 -1.5 29.3 80 -4.6 23.8 0 0
16:22 1010 29.83 839 24.78 -1.4 29.5 79 -4.6 23.6 0 0
16:23 1010 29.83 839 24.78 -1.3 29.6 79 -4.5 24 0 0
16:24 1010 29.83 839 24.78 -1.3 29.6 79 -4.5 23.9 0 0
16:25 1010 29.83 839 24.78 -1.3 29.6 79 -4.5 23.9 0 0
16:26 1010 29.83 839 24.78 -1.4 29.5 78 -4.8 23.4 0 0
16:27 1010 29.83 839 24.78 -1.4 29.5 79 -4.6 23.7 0 0
16:28 1010 29.83 839 24.78 -1.4 29.4 81 -4.3 24.3 0 0
16:29 1010 29.83 839 24.78 -1.4 29.5 81 -4.3 24.3 0 0
16:30 1010 29.83 839 24.78 -1.4 29.5 81 -4.2 24.5 0 0
16:31 1010 29.83 839 24.78 -1.4 29.4 81 -4.3 24.2 0 0
16:32 1010 29.83 839 24.78 -1.4 29.4 82 -4.1 24.6 0 0
16:33 1010 29.83 839 24.78 -1.4 29.5 82 -4.2 24.5 0 0
16:34 1010 29.83 839 24.78 -1.4 29.5 80 -4.4 24 0 0
16:35 1010 29.83 839 24.78 -1.4 29.5 80 -4.5 24 0 0
16:36 1010 29.83 839 24.78 -1.4 29.5 80 -4.5 24 0 0
16:37 1010 29.83 839 24.78 -1.4 29.5 78 -4.7 23.6 0 0
16:38 1010 29.83 839 24.78 -1.4 29.6 80 -4.4 24 0 0
16:39 1010 29.83 839 24.78 -1.3 29.7 78 -4.7 23.6 0 0
16:40 1010 29.83 839 24.78 -1.3 29.7 78 -4.5 23.8 0 0
16:41 1010 29.83 839 24.78 -1.2 29.8 78 -4.5 23.8 0 0
16:42 1010 29.83 839 24.78 -1.1 30 77 -4.7 23.5 0 0
16:43 1010 29.83 839 24.78 -1.1 30 75 -5 23 0 0
16:44 1010 29.83 839 24.78 -1.1 30 76 -4.7 23.5 0 0
16:45 1010 29.83 839 24.78 -1 30.1 77 -4.7 23.6 0 0
16:46 1010 29.83 839 24.78 -1 30.2 75 -5 23.1 0 0
16:47 1010 29.83 839 24.78 -0.9 30.3 74 -5 22.9 0 0
16:48 1010 29.83 839 24.78 -0.9 30.4 72 -5.3 22.4 0 0
16:49 1010 29.83 839 24.78 -0.9 30.4 73 -5.1 22.8 0 0
16:50 1010 29.83 839 24.78 -0.9 30.4 74 -5 23 0 0
16:51 1010 29.83 839 24.78 -0.9 30.5 74 -4.9 23.2 0 0
16:52 1010 29.83 839 24.78 -0.8 30.5 74 -4.9 23.1 0 0
16:53 1010 29.83 839 24.78 -0.9 30.4 74 -4.9 23.1 0 0
16:54 1010 29.83 839 24.78 -0.8 30.5 75 -4.7 23.6 0 0
16:55 1010 29.83 839 24.78 -0.7 30.7 74 -4.8 23.3 0 0
16:56 1010 29.83 839 24.78 -0.7 30.8 73 -4.8 23.3 0 0
16:57 1010 29.83 839 24.78 -0.6 30.9 73 -4.8 23.3 0 0
16:58 1010 29.83 839 24.78 -0.6 31 72 -5 23.1 0 0
16:59 1010 29.83 839 24.78 -0.5 31.1 72 -5 23.1 0 0
17:00 1010 29.83 839 24.78 -0.5 31.2 70 -5.2 22.7 0 0
17:01 1010 29.83 839 24.78 -0.5 31.2 70 -5.2 22.6 0 0
17:02 1010 29.83 839 24.78 -0.5 31.2 71 -5 22.9 0 0
17:03 1010 29.83 839 24.78 -0.4 31.2 72 -4.9 23.2 0 0
17:04 1010 29.83 839 24.78 -0.4 31.2 69 -5.5 22.1 0 0
17:05 1010 29.83 839 24.78 -0.5 31.2 69 -5.5 22 0 0
17:06 1010 29.83 839 24.78 -0.5 31.1 68 -5.6 21.9 0 0
17:07 1010 29.83 839 24.78 -0.6 30.9 68 -5.8 21.5 0 0
17:08 1010 29.83 839 24.78 -0.6 30.9 69 -5.6 21.9 0 0
17:09 1010 29.83 839 24.78 -0.6 30.9 68 -5.9 21.4 0 0
17:10 1010 29.83 839 24.78 -0.6 30.9 68 -5.8 21.5 0 0
17:11 1010 29.83 839 24.78 -0.7 30.8 68 -5.9 21.4 0 0
17:12 1010 29.83 839 24.78 -0.7 30.8 68 -5.8 21.6 0 0
17:13 1010 29.83 839 24.78 -0.8 30.6 68 -6 21.3 0 0
17:14 1010 29.83 839 24.78 -0.8 30.6 67 -6.1 21 0 0
17:15 1010 29.83 839 24.78 -0.9 30.4 69 -5.8 21.5 0 0
17:16 1010 29.83 839 24.78 -0.9 30.4 70 -5.6 21.9 0 0
17:17 1010 29.83 839 24.78 -0.9 30.4 70 -5.8 21.6 0 0
17:18 1010 29.83 839 24.78 -0.9 30.4 70 -5.6 21.8 0 0
17:19 1010 29.83 839 24.78 -1 30.3 73 -5.3 22.5 0 0
17:20 1010 29.83 839 24.78 -0.9 30.3 73 -5.1 22.8 0 0
17:21 1010 29.83 839 24.78 -0.9 30.3 73 -5.1 22.7 0 0
17:22 1010 29.83 839 24.78 -0.9 30.4 74 -4.9 23.2 0 0
17:23 1010 29.83 839 24.78 -0.9 30.4 73 -5.1 22.8 0 0
17:24 1010 29.83 839 24.78 -0.9 30.4 73 -5.1 22.8 0 0
17:25 1010 29.83 839 24.78 -0.9 30.3 77 -4.5 23.9 0 0
17:26 1010 29.83 839 24.78 -1.1 30.1 78 -4.4 24 0 0
17:27 1010 29.83 839 24.78 -1.2 29.9 79 -4.3 24.3 0 0
17:28 1010 29.83 839 24.78 -1.2 29.8 79 -4.5 23.9 0 0
17:29 1010 29.83 839 24.78 -1.3 29.7 81 -4.2 24.4 0 0
17:30 1010 29.83 839 24.78 -1.2 29.8 81 -4.1 24.6 0 0
17:31 1010 29.83 839 24.78 -1.2 29.9 77 -4.7 23.6 0 0
17:32 1010 29.83 839 24.78 -1.2 29.8 74 -5.4 22.3 0 0
17:33 1010 29.83 839 24.78 -1.1 30 67 -6.4 20.4 0 0
17:34 1010 29.83 839 24.78 -0.9 30.3 68 -6 21.1 0 0
17:35 1010 29.83 839 24.78 -0.8 30.5 69 -5.8 21.6 0 0
17:36 1010 29.83 839 24.78 -0.8 30.6 71 -5.4 22.2 0 0
17:37 1010 29.83 839 24.78 -0.9 30.4 74 -5 23 0 0
17:38 1010 29.83 839 24.78 -0.9 30.4 75 -4.7 23.5 0 0
17:39 1010 29.83 839 24.78 -1 30.2 75 -4.8 23.3 0 0
17:40 1010 29.83 839 24.78 -1.1 30.1 76 -4.8 23.4 0 0
17:41 1010 29.83 839 24.78 -1.1 30 77 -4.7 23.5 0 0
17:42 1010 29.83 839 24.78 -1.2 29.9 77 -4.8 23.4 0 0
17:43 1010 29.83 839 24.78 -1.2 29.9 78 -4.6 23.7 0 0
17:44 1010 29.83 839 24.78 -1.2 29.9 79 -4.3 24.2 0 0
17:45 1010 29.83 839 24.78 -1.2 29.8 81 -4 24.8 0 0
17:46 1010 29.83 839 24.78 -1.3 29.7 83 -3.9 25 0 0
17:47 1010 29.83 839 24.78 -1.4 29.4 83 -3.9 25 0 0
17:48 1010 29.83 839 24.78 -1.6 29.1 86 -3.7 25.4 0 0
17:49 1010 29.83 839 24.78 -1.7 29 87 -3.6 25.4 0 0
17:50 1010 29.83 839 24.78 -1.8 28.8 86 -3.8 25.1 0 0
17:51 1010 29.83 839 24.78 -1.8 28.8 86 -3.8 25.1 0 0
17:52 1010 29.83 839 24.78 -1.8 28.7 86 -3.8 25.1 0 0
17:53 1010 29.83 839 24.78 -1.8 28.8 85 -4 24.9 0 0
17:54 1010 29.83 839 24.78 -1.8 28.8 86 -3.9 25 0 0
17:55 1010 29.83 839 24.78 -1.8 28.7 87 -3.7 25.3 0 0
17:56 1010 29.83 839 24.78 -1.9 28.5 88 -3.6 25.4 0 0
17:57 1010 29.83 839 24.78 -2 28.3 90 -3.5 25.7 0 0
17:58 1010 29.83 840 24.81 -2.1 28.2 90 -3.6 25.6 0 0
17:59 1010 29.83 840 24.81 -2.2 28.1 90 -3.6 25.6 0 0
18:00 1010 29.83 840 24.81 -2.2 28 91 -3.5 25.7 0 0
18:01 1010 29.83 840 24.81 -2.3 27.9 90 -3.6 25.4 0 0
18:02 1010 29.83 840 24.81 -2.3 27.8 92 -3.5 25.7 0 0
18:03 1010 29.83 840 24.81 -2.3 27.8 93 -3.3 26 0 0
18:04 1011 29.85 840 24.81 -2.3 27.8 93 -3.4 25.9 0 0
18:05 1011 29.85 840 24.81 -2.4 27.6 92 -3.6 25.5 0 0
18:06 1011 29.85 840 24.81 -2.5 27.4 91 -3.8 25.2 0 0
18:07 1011 29.85 840 24.81 -2.6 27.3 91 -4 24.9 0 0
18:08 1011 29.85 840 24.81 -2.8 27 91 -4 24.8 0 0
18:09 1011 29.85 840 24.81 -2.8 26.9 92 -4 24.8 0 0
18:10 1011 29.85 840 24.81 -2.9 26.8 92 -4 24.8 0 0
18:11 1011 29.85 840 24.81 -3 26.7 93 -4 24.9 0 0
18:12 1011 29.85 840 24.81 -3 26.7 93 -3.9 25 0 0
18:13 1011 29.85 840 24.81 -3 26.6 93 -3.9 25 0 0
18:14 1011 29.85 840 24.81 -3 26.6 94 -3.8 25.1 0 0
18:15 1011 29.85 840 24.81 -3 26.6 94 -3.8 25.1 0 0
18:16 1011 29.85 840 24.81 -3 26.6 94 -3.8 25.2 0 0
18:17 1011 29.85 840 24.81 -3 26.6 94 -3.8 25.2 0 0
18:18 1011 29.85 840 24.81 -3 26.6 94 -3.8 25.2 0 0
18:19 1011 29.85 840 24.81 -3 26.5 94 -3.8 25.1 0 0
18:20 1011 29.85 840 24.81 -3 26.6 94 -3.8 25.1 0 0
18:21 1011 29.85 840 24.81 -3 26.6 94 -3.8 25.2 0 0
18:22 1011 29.85 840 24.81 -2.9 26.7 94 -3.8 25.2 0 0
18:23 1011 29.85 840 24.81 -3 26.7 94 -3.8 25.2 0 0
18:24 1011 29.85 840 24.81 -2.9 26.7 94 -3.8 25.2 0 0
18:25 1011 29.85 840 24.81 -2.9 26.8 94 -3.8 25.2 0 0
18:26 1011 29.85 840 24.81 -2.9 26.8 94 -3.7 25.3 0 0
18:27 1011 29.85 840 24.81 -2.9 26.8 94 -3.7 25.3 0 0
18:28 1011 29.85 840 24.81 -2.9 26.9 94 -3.7 25.3 0 0
18:29 1011 29.85 840 24.81 -2.9 26.9 94 -3.7 25.4 0 0
18:30 1011 29.85 840 24.81 -2.8 27 94 -3.6 25.5 0 0
18:31 1011 29.85 840 24.81 -2.7 27.1 94 -3.5 25.7 0 0
18:32 1011 29.85 840 24.81 -2.7 27.2 94 -3.4 25.8 0 0
18:33 1011 29.85 840 24.81 -2.6 27.3 94 -3.4 25.9 0 0
18:34 1011 29.85 840 24.81 -2.6 27.3 94 -3.4 25.8 0 0
18:35 1011 29.85 840 24.81 -2.6 27.3 94 -3.5 25.8 0 0
18:36 1011 29.85 840 24.81 -2.6 27.3 94 -3.4 25.9 0 0
18:37 1011 29.85 840 24.81 -2.6 27.3 94 -3.5 25.7 0 0
18:38 1011 29.85 840 24.81 -2.6 27.2 93 -3.6 25.6 0 0
18:39 1011 29.85 840 24.81 -2.7 27.1 94 -3.6 25.5 0 0
18:40 1011 29.85 840 24.81 -2.7 27.2 94 -3.5 25.7 0 0
18:41 1011 29.85 840 24.81 -2.6 27.2 94 -3.5 25.7 0 0
18:42 1011 29.85 840 24.81 -2.7 27.1 94 -3.6 25.5 0 0
18:43 1011 29.85 840 24.81 -2.7 27.1 94 -3.6 25.6 0 0
18:44 1011 29.85 840 24.81 -2.7 27.1 94 -3.6 25.6 0 0
18:45 1011 29.85 840 24.81 -2.8 27 94 -3.6 25.5 0 0
18:46 1011 29.85 840 24.81 -2.8 27 94 -3.6 25.5 0 0
18:47 1011 29.85 840 24.81 -2.8 26.9 93 -3.8 25.2 0 0
18:48 1011 29.85 840 24.81 -2.9 26.8 92 -4 24.8 0 0
18:49 1011 29.85 840 24.81 -2.9 26.7 92 -4 24.7 0 0
18:50 1011 29.85 840 24.81 -3 26.6 92 -4.1 24.6 0 0
18:51 1011 29.85 840 24.81 -3 26.5 92 -4.1 24.6 0 0
18:52 1011 29.85 840 24.81 -3 26.5 92 -4.1 24.5 0 0
18:53 1011 29.85 840 24.81 -3.1 26.4 92 -4.2 24.4 0 0
18:54 1011 29.85 840 24.81 -3.2 26.3 92 -4.2 24.4 0 0
18:55 1011 29.85 840 24.81 -3.1 26.4 93 -4.2 24.5 0 0
18:56 1011 29.85 840 24.81 -3.2 26.2 93 -4.3 24.3 0 0
18:57 1011 29.85 840 24.81 -3.2 26.2 92 -4.3 24.3 0 0
18:58 1011 29.85 840 24.81 -3.3 26.1 93 -4.2 24.4 0 0
18:59 1011 29.85 840 24.81 -3.3 26.1 92 -4.4 24.1 0 0
19:00 1011 29.85 841 24.83 -3.3 26 90 -4.8 23.4 0 0
19:01 1011 29.85 841 24.83 -3.4 25.9 89 -4.9 23.2 0 0
19:02 1011 29.85 841 24.83 -3.4 25.8 88 -5.1 22.8 0 0
19:03 1011 29.85 840 24.81 -3.5 25.8 89 -5.1 22.8 0 0
19:04 1011 29.85 841 24.83 -3.5 25.7 87 -5.3 22.4 0 0
19:05 1011 29.85 841 24.83 -3.6 25.5 88 -5.4 22.4 0 0
19:06 1011 29.85 841 24.83 -3.7 25.3 89 -5.3 22.5 0 0
19:07 1011 29.85 841 24.83 -3.8 25.2 89 -5.3 22.4 0 0
19:08 1011 29.85 841 24.83 -3.8 25.2 89 -5.4 22.3 0 0
19:09 1011 29.85 841 24.83 -3.9 25 89 -5.5 22.1 0 0
19:10 1011 29.85 841 24.83 -3.9 25 89 -5.5 22.2 0 0
19:11 1011 29.85 841 24.83 -3.9 25.1 89 -5.4 22.2 0 0
19:12 1011 29.85 841 24.83 -3.9 25 88 -5.6 22 0 0
19:13 1012 29.88 841 24.83 -3.9 25 88 -5.6 22 0 0
19:14 1012 29.88 841 24.83 -3.9 25 88 -5.6 21.8 0 0
19:15 1012 29.88 841 24.83 -3.9 25 87 -5.7 21.7 0 0
19:16 1012 29.88 841 24.83 -3.9 25 87 -5.7 21.8 0 0
19:17 1012 29.88 841 24.83 -3.9 25.1 87 -5.8 21.6 0 0
19:18 1012 29.88 841 24.83 -3.9 25.1 86 -5.9 21.4 0 0
19:19 1012 29.88 841 24.83 -3.8 25.1 85 -6 21.2 0 0
19:20 1012 29.88 841 24.83 -3.9 25 84 -6.1 21 0 0
19:21 1012 29.88 841 24.83 -3.9 25 83 -6.3 20.7 0 0
19:22 1012 29.88 841 24.83 -3.9 25 82 -6.5 20.3 0 0
19:23 1012 29.88 841 24.83 -3.9 24.9 82 -6.6 20.1 0 0
19:24 1012 29.88 841 24.83 -3.9 24.9 82 -6.6 20.2 0 0
19:25 1012 29.88 841 24.83 -3.9 24.9 82 -6.5 20.3 0 0
19:26 1012 29.88 841 24.83 -4 24.9 82 -6.6 20.1 0 0
19:27 1012 29.88 841 24.83 -4 24.8 82 -6.7 20 0 0
19:28 1012 29.88 841 24.83 -4 24.8 81 -6.8 19.8 0 0
19:29 1012 29.88 841 24.83 -4 24.8 81 -6.7 19.9 0 0
19:30 1012 29.88 841 24.83 -4 24.8 80 -6.9 19.6 0 0
19:31 1012 29.88 841 24.83 -4 24.8 81 -6.9 19.7 0 0
19:32 1012 29.88 841 24.83 -4.1 24.6 80 -7 19.4 0 0
19:33 1012 29.88 841 24.83 -4.1 24.7 80 -7 19.3 0 0
19:34 1012 29.88 841 24.83 -4.1 24.6 78 -7.4 18.7 0 0
19:35 1012 29.88 841 24.83 -4.1 24.6 75 -7.9 17.8 0 0
19:36 1012 29.88 841 24.83 -4.2 24.5 75 -7.9 17.8 0 0
19:37 1012 29.88 841 24.83 -4.2 24.4 74 -8.2 17.2 0 0
19:38 1012 29.88 841 24.83 -4.3 24.3 75 -8 17.5 0 0
19:39 1012 29.88 841 24.83 -4.3 24.3 76 -7.8 17.9 0 0
19:40 1012 29.88 841 24.83 -4.3 24.3 76 -7.9 17.9 0 0
19:41 1012 29.88 841 24.83 -4.3 24.2 75 -8.1 17.4 0 0
19:42 1012 29.88 841 24.83 -4.4 24.2 76 -7.9 17.7 0 0
19:43 1012 29.88 841 24.83 -4.4 24.1 74 -8.4 16.9 0 0
19:44 1012 29.88 841 24.83 -4.4 24.2 74 -8.3 17.1 0 0
19:45 1012 29.88 841 24.83 -4.4 24.1 74 -8.4 16.9 0 0
19:46 1012 29.88 841 24.83 -4.4 24.1 74 -8.4 16.9 0 0
19:47 1012 29.88 841 24.83 -4.4 24 74 -8.4 16.9 0 0
19:48 1012 29.88 841 24.83 -4.4 24 73 -8.6 16.6 0 0
19:49 1012 29.88 841 24.83 -4.5 23.9 71 -8.9 16 0 0
19:50 1012 29.88 841 24.83 -4.5 23.9 73 -8.6 16.5 0 0
19:51 1012 29.88 841 24.83 -4.5 23.9 74 -8.5 16.7 0 0
19:52 1012 29.88 841 24.83 -4.5 23.9 73 -8.7 16.3 0 0
19:53 1012 29.88 841 24.83 -4.6 23.8 71 -9.1 15.5 0 0
19:54 1012 29.88 841 24.83 -4.5 23.9 73 -8.7 16.4 0 0
19:55 1012 29.88 841 24.83 -4.6 23.8 72 -8.8 16.1 0 0
19:56 1012 29.88 841 24.83 -4.6 23.8 72 -8.9 15.9 0 0
19:57 1012 29.88 841 24.83 -4.6 23.8 74 -8.6 16.5 0 0
19:58 1012 29.88 841 24.83 -4.6 23.7 73 -8.7 16.4 0 0
19:59 1012 29.88 841 24.83 -4.6 23.7 72 -9 15.8 0 0
20:00 1012 29.88 841 24.83 -4.6 23.7 73 -8.8 16.2 0 0
20:01 1012 29.88 841 24.83 -4.6 23.6 72 -8.9 16 0 0
20:02 1012 29.88 841 24.83 -4.6 23.7 72 -8.9 15.9 0 0
20:03 1012 29.88 842 24.86 -4.6 23.6 71 -9.1 15.7 0 0
20:04 1012 29.88 842 24.86 -4.6 23.6 72 -8.9 16 0 0
20:05 1012 29.88 842 24.86 -4.7 23.6 71 -9.1 15.5 0 0
20:06 1012 29.88 842 24.86 -4.7 23.6 70 -9.3 15.3 0 0
20:07 1012 29.88 842 24.86 -4.7 23.6 71 -9.1 15.6 0 0
20:08 1012 29.88 842 24.86 -4.7 23.6 71 -9.2 15.5 0 0
20:09 1012 29.88 842 24.86 -4.7 23.6 70 -9.4 15.1 0 0
20:10 1013 29.91 842 24.86 -4.7 23.5 70 -9.4 15 0 0
20:11 1013 29.91 842 24.86 -4.7 23.5 70 -9.3 15.2 0 0
20:12 1013 29.91 842 24.86 -4.7 23.5 70 -9.5 15 0 0
20:13 1013 29.91 842 24.86 -4.7 23.5 70 -9.4 15 0 0
20:14 1013 29.91 842 24.86 -4.7 23.6 68 -9.6 14.6 0 0
20:15 1013 29.91 842 24.86 -4.7 23.5 69 -9.6 14.7 0 0
20:16 1013 29.91 842 24.86 -4.7 23.5 69 -9.6 14.7 0 0
20:17 1013 29.91 842 24.86 -4.7 23.5 68 -9.7 14.5 0 0
20:18 1013 29.91 842 24.86 -4.8 23.4 68 -9.9 14.2 0 0
20:19 1013 29.91 842 24.86 -4.7 23.5 68 -9.7 14.6 0 0
20:20 1013 29.91 842 24.86 -4.7 23.5 69 -9.6 14.7 0 0
20:21 1013 29.91 842 24.86 -4.8 23.4 68 -9.8 14.4 0 0
20:22 1013 29.91 842 24.86 -4.8 23.5 68 -9.8 14.4 0 0
20:23 1013 29.91 842 24.86 -4.8 23.4 68 -9.8 14.4 0 0
20:24 1013 29.91 842 24.86 -4.8 23.4 69 -9.7 14.5 0 0
20:25 1013 29.91 842 24.86 -4.8 23.3 67 -10 14.1 0 0
20:26 1013 29.91 842 24.86 -4.9 23.3 68 -10 14.1 0 0
20:27 1013 29.91 842 24.86 -4.8 23.3 68 -9.9 14.3 0 0
20:28 1013 29.91 842 24.86 -4.9 23.2 67 -10.1 13.8 0 0
20:29 1013 29.91 842 24.86 -4.9 23.2 69 -9.8 14.4 0 0
20:30 1013 29.91 842 24.86 -4.9 23.2 68 -10 14 0 0
20:31 1013 29.91 842 24.86 -5 23.1 68 -10 14 0 0
20:32 1013 29.91 842 24.86 -4.9 23.1 68 -9.9 14.1 0 0
20:33 1013 29.91 842 24.86 -5 23.1 67 -10.3 13.5 0 0
20:34 1013 29.91 842 24.86 -5 23 68 -10 14 0 0
20:35 1013 29.91 842 24.86 -5 23 67 -10.3 13.5 0 0
20:36 1013 29.91 842 24.86 -5 22.9 66 -10.5 13.1 0 0
20:37 1013 29.91 842 24.86 -5.1 22.9 66 -10.4 13.3 0 0
20:38 1013 29.91 842 24.86 -5.1 22.8 66 -10.6 13 0 0
20:39 1013 29.91 842 24.86 -5.1 22.9 67 -10.3 13.5 0 0
20:40 1013 29.91 842 24.86 -5.1 22.8 67 -10.4 13.3 0 0
20:41 1013 29.91 843 24.89 -5.1 22.7 67 -10.3 13.5 0 0
20:42 1013 29.91 843 24.89 -5.2 22.7 67 -10.3 13.4 0 0
20:43 1013 29.91 843 24.89 -5.2 22.7 66 -10.5 13.1 0 0
20:44 1013 29.91 843 24.89 -5.2 22.7 68 -10.1 13.8 0 0
20:45 1014 29.94 843 24.89 -5.2 22.7 66 -10.5 13.1 0 0
20:46 1014 29.94 843 24.89 -5.2 22.7 67 -10.3 13.4 0 0
20:47 1014 29.94 843 24.89 -5.2 22.7 66 -10.6 12.9 0 0
20:48 1014 29.94 843 24.89 -5.2 22.7 65 -10.7 12.8 0 0
20:49 1014 29.94 843 24.89 -5.2 22.6 66 -10.6 13 0 0
20:50 1014 29.94 843 24.89 -5.2 22.6 64 -10.9 12.4 0 0
20:51 1014 29.94 843 24.89 -5.2 22.6 65 -10.8 12.5 0 0
20:52 1014 29.94 843 24.89 -5.3 22.5 63 -11.2 11.8 0 0
20:53 1014 29.94 843 24.89 -5.3 22.4 64 -11.2 11.9 0 0
20:54 1014 29.94 843 24.89 -5.4 22.3 65 -10.9 12.4 0 0
20:55 1014 29.94 843 24.89 -5.4 22.3 66 -10.8 12.6 0 0
20:56 1014 29.94 843 24.89 -5.4 22.2 65 -11 12.3 0 0
20:57 1014 29.94 843 24.89 -5.5 22.1 66 -10.9 12.4 0 0
20:58 1014 29.94 843 24.89 -5.5 22.1 66 -10.8 12.5 0 0
20:59 1014 29.94 843 24.89 -5.6 22 64 -11.3 11.7 0 0
21:00 1014 29.94 843 24.89 -5.6 21.9 66 -11 12.2 0 0
21:01 1014 29.94 843 24.89 -5.6 21.9 65 -11.1 12 0 0
21:02 1014 29.94 843 24.89 -5.6 21.9 65 -11.1 11.9 0 0
21:03 1014 29.94 843 24.89 -5.7 21.8 66 -11 12.2 0 0
21:04 1014 29.94 843 24.89 -5.7 21.8 66 -11.1 12.1 0 0
21:05 1014 29.94 843 24.89 -5.7 21.7 66 -11 12.2 0 0
21:06 1014 29.94 843 24.89 -5.8 21.7 66 -11.1 12 0 0
21:07 1014 29.94 843 24.89 -5.8 21.6 66 -11.1 12 0 0
21:08 1014 29.94 843 24.89 -5.8 21.6 67 -10.9 12.4 0 0
21:09 1014 29.94 843 24.89 -5.8 21.5 66 -11.2 11.8 0 0
21:10 1014 29.94 843 24.89 -5.8 21.5 66 -11.3 11.7 0 0
21:11 1014 29.94 843 24.89 -5.9 21.5 66 -11.1 11.9 0 0
21:12 1014 29.94 843 24.89 -5.9 21.4 63 -11.8 10.7 0 0
21:13 1014 29.94 843 24.89 -5.9 21.4 65 -11.4 11.4 0 0
21:14 1014 29.94 843 24.89 -5.9 21.3 67 -11.1 12 0 0
21:15 1014 29.94 843 24.89 -6 21.3 67 -11.2 11.8 0 0
21:16 1014 29.94 843 24.89 -6 21.2 66 -11.4 11.5 0 0
21:17 1014 29.94 843 24.89 -6 21.2 67 -11.2 11.8 0 0
21:18 1014 29.94 843 24.89 -6.1 21.1 63 -12 10.5 0 0
21:19 1014 29.94 843 24.89 -6.1 21.1 67 -11.1 11.9 0 0
21:20 1014 29.94 843 24.89 -6.1 21.1 66 -11.5 11.4 0 0
21:21 1014 29.94 843 24.89 -6.1 21 65 -11.6 11.1 0 0
21:22 1014 29.94 843 24.89 -6.1 21 64 -11.9 10.6 0 0
21:23 1014 29.94 843 24.89 -6.1 20.9 65 -11.8 10.8 0 0
21:24 1014 29.94 843 24.89 -6.2 20.8 65 -11.8 10.7 0 0
21:25 1014 29.94 843 24.89 -6.2 20.8 68 -11.1 12 0 0
21:26 1014 29.94 844 24.92 -6.3 20.7 65 -11.7 10.9 0 0
21:27 1014 29.94 844 24.92 -6.3 20.7 69 -11.1 12 0 0
21:28 1014 29.94 844 24.92 -6.3 20.7 71 -10.8 12.6 0 0
21:29 1014 29.94 844 24.92 -6.3 20.6 67 -11.5 11.4 0 0
21:30 1014 29.94 844 24.92 -6.4 20.5 70 -11.1 12.1 0 0
21:31 1014 29.94 844 24.92 -6.5 20.3 69 -11.3 11.7 0 0
21:32 1014 29.94 844 24.92 -6.6 20.2 69 -11.3 11.6 0 0
21:33 1014 29.94 844 24.92 -6.6 20.1 70 -11.3 11.7 0 0
21:34 1014 29.94 844 24.92 -6.6 20.1 67 -11.7 11 0 0
21:35 1014 29.94 844 24.92 -6.6 20 69 -11.4 11.4 0 0
21:36 1014 29.94 844 24.92 -6.7 20 69 -11.4 11.5 0 0
21:37 1015 29.97 844 24.92 -6.7 20 68 -11.7 10.9 0 0
21:38 1015 29.97 844 24.92 -6.7 19.9 68 -11.6 11.1 0 0
21:39 1015 29.97 844 24.92 -6.7 19.9 69 -11.6 11.2 0 0
21:40 1015 29.97 844 24.92 -6.8 19.8 70 -11.4 11.5 0 0
21:41 1015 29.97 844 24.92 -6.9 19.6 72 -11.1 12 0 0
21:42 1015 29.97 844 24.92 -6.9 19.6 71 -11.3 11.6 0 0
21:43 1015 29.97 844 24.92 -7 19.5 70 -11.6 11.2 0 0
21:44 1015 29.97 844 24.92 -7 19.5 70 -11.5 11.3 0 0
21:45 1015 29.97 844 24.92 -6.9 19.5 73 -10.9 12.4 0 0
21:46 1015 29.97 844 24.92 -7 19.5 69 -11.7 11 0 0
21:47 1015 29.97 844 24.92 -7 19.4 74 -10.9 12.4 0 0
21:48 1015 29.97 844 24.92 -7.1 19.3 73 -11.1 12 0 0
21:49 1015 29.97 844 24.92 -7.2 19.1 74 -11 12.2 0 0
21:50 1015 29.97 844 24.92 -7.3 18.9 77 -10.7 12.7 0 0
21:51 1015 29.97 844 24.92 -7.4 18.7 79 -10.5 13.1 0 0
21:52 1015 29.97 844 24.92 -7.5 18.6 79 -10.6 12.9 0 0
21:53 1015 29.97 844 24.92 -7.6 18.2 79 -10.8 12.6 0 0
21:54 1015 29.97 844 24.92 -7.8 18 80 -10.7 12.8 0 0
21:55 1015 29.97 844 24.92 -7.9 17.8 82 -10.4 13.2 0 0
21:56 1015 29.97 844 24.92 -7.9 17.7 82 -10.6 13 0 0
21:57 1015 29.97 844 24.92 -8 17.7 83 -10.4 13.3 0 0
21:58 1015 29.97 844 24.92 -8 17.6 81 -10.7 12.8 0 0
21:59 1015 29.97 844 24.92 -8 17.6 80 -10.8 12.5 0 0
22:00 1015 29.97 844 24.92 -8.1 17.5 80 -10.9 12.5 0 0
22:01 1015 29.97 844 24.92 -8 17.6 81 -10.7 12.7 0 0
22:02 1015 29.97 844 24.92 -8 17.6 79 -11 12.2 0 0
22:03 1015 29.97 844 24.92 -8 17.5 79 -11.1 12 0 0
22:04 1015 29.97 844 24.92 -8 17.5 79 -11.1 12 0 0
22:05 1015 29.97 844 24.92 -8.1 17.5 79 -11 12.1 0 0
22:06 1015 29.97 844 24.92 -8 17.5 79 -11 12.1 0 0
22:07 1015 29.97 844 24.92 -8 17.6 79 -11.1 12.1 0 0
22:08 1015 29.97 844 24.92 -8 17.6 80 -10.9 12.3 0 0
22:09 1015 29.97 844 24.92 -8 17.7 78 -11.1 12 0 0
22:10 1015 29.97 844 24.92 -8 17.6 79 -10.9 12.3 0 0
22:11 1015 29.97 844 24.92 -7.9 17.7 79 -10.9 12.3 0 0
22:12 1015 29.97 844 24.92 -7.9 17.7 78 -11.1 11.9 0 0
22:13 1015 29.97 844 24.92 -8 17.6 77 -11.3 11.7 0 0
22:14 1015 29.97 844 24.92 -8 17.6 78 -11.1 12 0 0
22:15 1015 29.97 844 24.92 -8 17.6 78 -11.2 11.8 0 0
22:16 1015 29.97 844 24.92 -8.1 17.4 78 -11.4 11.5 0 0
22:17 1015 29.97 844 24.92 -8.1 17.4 77 -11.4 11.4 0 0
22:18 1015 29.97 844 24.92 -8.1 17.5 78 -11.3 11.7 0 0
22:19 1015 29.97 845 24.95 -8.1 17.4 78 -11.2 11.8 0 0
22:20 1015 29.97 845 24.95 -8.1 17.4 75 -11.7 10.9 0 0
22:21 1015 29.97 845 24.95 -8.1 17.5 79 -11.1 12 0 0
22:22 1015 29.97 845 24.95 -8.1 17.5 75 -11.7 11 0 0
22:23 1015 29.97 845 24.95 -8 17.6 78 -11.2 11.8 0 0
22:24 1015 29.97 845 24.95 -8.1 17.4 80 -11 12.3 0 0
22:25 1015 29.97 845 24.95 -8.2 17.3 80 -11 12.2 0 0
22:26 1015 29.97 845 24.95 -8.3 17.1 82 -10.8 12.5 0 0
22:27 1015 29.97 845 24.95 -8.4 16.9 84 -10.7 12.8 0 0
22:28 1015 29.97 845 24.95 -8.5 16.8 84 -10.7 12.8 0 0
22:29 1015 29.97 845 24.95 -8.5 16.7 84 -10.8 12.6 0 0
22:30 1015 29.97 845 24.95 -8.5 16.7 83 -10.9 12.4 0 0
22:31 1015 29.97 845 24.95 -8.5 16.6 83 -11 12.2 0 0
22:32 1016 30 845 24.95 -8.6 16.5 85 -10.7 12.7 0 0
22:33 1016 30 845 24.95 -8.6 16.5 85 -10.7 12.7 0 0
22:34 1016 30 845 24.95 -8.7 16.4 85 -10.8 12.6 0 0
22:35 1016 30 845 24.95 -8.7 16.4 85 -10.8 12.6 0 0
22:36 1016 30 845 24.95 -8.7 16.3 86 -10.7 12.7 0 0
22:37 1016 30 845 24.95 -8.8 16.2 85 -10.9 12.3 0 0
22:38 1016 30 845 24.95 -8.8 16.1 85 -10.9 12.4 0 0
22:39 1016 30 845 24.95 -8.9 16.1 86 -10.8 12.6 0 0
22:40 1016 30 845 24.95 -8.9 16.1 86 -10.8 12.5 0 0
22:41 1016 30 845 24.95 -8.9 16.1 86 -10.8 12.6 0 0
22:42 1016 30 845 24.95 -8.9 16 87 -10.7 12.7 0 0
22:43 1016 30 845 24.95 -8.9 15.9 86 -10.8 12.6 0 0
22:44 1016 30 845 24.95 -9 15.9 86 -10.8 12.5 0 0
22:45 1016 30 845 24.95 -9 15.8 86 -10.9 12.3 0 0
22:46 1016 30 845 24.95 -9 15.8 87 -10.9 12.4 0 0
22:47 1016 30 845 24.95 -9 15.7 87 -10.9 12.4 0 0
22:48 1016 30 845 24.95 -9.1 15.7 86 -11 12.2 0 0
22:49 1016 30 845 24.95 -9.1 15.7 86 -11 12.2 0 0
22:50 1016 30 845 24.95 -9.1 15.6 86 -11 12.2 0 0
22:51 1016 30 845 24.95 -9.1 15.7 88 -10.8 12.6 0 0
22:52 1016 30 845 24.95 -9.1 15.6 87 -10.8 12.5 0 0
22:53 1016 30 845 24.95 -9.1 15.6 86 -11.1 12.1 0 0
22:54 1016 30 845 24.95 -9.2 15.5 86 -11.1 11.9 0 0
22:55 1016 30 845 24.95 -9.2 15.4 87 -11 12.1 0 0
22:56 1016 30 845 24.95 -9.2 15.4 86 -11.2 11.9 0 0
22:57 1016 30 845 24.95 -9.2 15.4 86 -11.1 12 0 0
22:58 1016 30 845 24.95 -9.3 15.3 87 -11 12.1 0 0
22:59 1016 30 845 24.95 -9.3 15.3 86 -11.1 12 0 0
23:00 1016 30 845 24.95 -9.3 15.3 87 -11.1 12.1 0 0
23:01 1016 30 845 24.95 -9.3 15.2 88 -11 12.1 0 0
23:02 1016 30 845 24.95 -9.4 15.2 88 -11 12.2 0 0
23:03 1016 30 845 24.95 -9.4 15.1 88 -11 12.2 0 0
23:04 1016 30 845 24.95 -9.4 15.2 88 -11 12.2 0 0
23:05 1016 30 845 24.95 -9.4 15.2 88 -11.1 12.1 0 0
23:06 1016 30 845 24.95 -9.4 15 88 -11.1 12 0 0
23:07 1016 30 845 24.95 -9.4 15 88 -11.1 12.1 0 0
23:08 1016 30 845 24.95 -9.5 15 88 -11.1 12 0 0
23:09 1016 30 845 24.95 -9.5 14.9 88 -11.1 12 0 0
23:10 1016 30 845 24.95 -9.6 14.8 89 -11.1 12 0 0
23:11 1016 30 845 24.95 -9.6 14.8 89 -11 12.1 0 0
23:12 1016 30 845 24.95 -9.6 14.8 89 -11.1 12 0 0
23:13 1016 30 845 24.95 -9.6 14.7 89 -11.1 11.9 0 0
23:14 1016 30 845 24.95 -9.6 14.7 89 -11.1 12 0 0
23:15 1016 30 845 24.95 -9.6 14.7 89 -11.1 11.9 0 0
23:16 1016 30 845 24.95 -9.7 14.6 89 -11.2 11.8 0 0
23:17 1016 30 845 24.95 -9.6 14.7 88 -11.2 11.8 0 0
23:18 1016 30 845 24.95 -9.6 14.6 89 -11.1 11.9 0 0
23:19 1016 30 845 24.95 -9.7 14.6 88 -11.3 11.7 0 0
23:20 1016 30 845 24.95 -9.6 14.6 88 -11.3 11.7 0 0
23:21 1016 30 845 24.95 -9.7 14.6 88 -11.2 11.8 0 0
23:22 1016 30 845 24.95 -9.7 14.6 89 -11.2 11.8 0 0
23:23 1016 30 845 24.95 -9.7 14.6 88 -11.3 11.6 0 0
23:24 1016 30 845 24.95 -9.7 14.6 88 -11.4 11.5 0 0
23:25 1016 30 845 24.95 -9.7 14.6 88 -11.4 11.6 0 0
23:26 1016 30 845 24.95 -9.7 14.5 88 -11.3 11.6 0 0
23:27 1016 30 845 24.95 -9.7 14.5 88 -11.4 11.5 0 0
23:28 1016 30 845 24.95 -9.7 14.5 87 -11.5 11.3 0 0
23:29 1016 30 845 24.95 -9.7 14.6 87 -11.4 11.4 0 0
23:30 1016 30 845 24.95 -9.7 14.6 87 -11.4 11.5 0 0
23:31 1016 30 845 24.95 -9.7 14.6 87 -11.4 11.5 0 0
23:32 1016 30 845 24.95 -9.7 14.6 88 -11.4 11.5 0 0
23:33 1016 30 845 24.95 -9.7 14.6 86 -11.6 11.1 0 0
23:34 1016 30 845 24.95 -9.7 14.6 87 -11.5 11.3 0 0
23:35 1016 30 845 24.95 -9.7 14.5 87 -11.5 11.3 0 0
23:36 1016 30 845 24.95 -9.7 14.5 87 -11.5 11.4 0 0
23:37 1016 30 845 24.95 -9.8 14.4 87 -11.6 11.2 0 0
23:38 1016 30 845 24.95 -9.8 14.4 87 -11.6 11.2 0 0
23:39 1016 30 846 24.98 -9.7 14.5 86 -11.7 11 0 0
23:40 1016 30 846 24.98 -9.7 14.6 86 -11.6 11.2 0 0
23:41 1016 30 846 24.98 -9.7 14.6 87 -11.5 11.3 0 0
23:42 1016 30 846 24.98 -9.7 14.6 87 -11.5 11.3 0 0
23:43 1016 30 846 24.98 -9.7 14.5 86 -11.6 11.1 0 0
23:44 1016 30 846 24.98 -9.7 14.5 86 -11.6 11.2 0 0
23:45 1016 30 846 24.98 -9.7 14.5 86 -11.6 11.1 0 0
23:46 1016 30 846 24.98 -9.7 14.5 86 -11.7 11 0 0
23:47 1017 30.03 846 24.98 -9.7 14.6 86 -11.6 11 0 0
23:48 1016 30 846 24.98 -9.7 14.6 85 -11.7 11 0 0
23:49 1016 30 846 24.98 -9.7 14.6 86 -11.5 11.3 0 0
23:50 1016 30 846 24.98 -9.7 14.6 85 -11.7 10.9 0 0
23:51 1016 30 846 24.98 -9.7 14.6 84 -11.9 10.6 0 0
23:52 1016 30 846 24.98 -9.6 14.7 82 -12.2 10.1 0 0
23:53 1017 30.03 846 24.98 -9.6 14.8 82 -12.1 10.3 0 0
23:54 1016 30 846 24.98 -9.6 14.8 83 -12 10.4 0 0
23:55 1016 30 846 24.98 -9.6 14.7 84 -11.8 10.7 0 0
23:56 1017 30.03 846 24.98 -9.6 14.6 84 -11.8 10.7 0 0
23:57 1017 30.03 846 24.98 -9.7 14.6 84 -11.9 10.6 0 0
23:58 1017 30.03 846 24.98 -9.6 14.6 85 -11.8 10.8 0 0
23:59 1016 30 846 24.98 -9.7 14.6 84 -11.9 10.6 0 0
24:00 1016 30 846 24.98 -9.7 14.5 85 -11.9 10.7 0 0